Wetterdaten: Dienstag, 11.11.2014
Datum Zeit Temp. Aussen +5cm Feuchte Auss Luftdruck Regen Sonnenschein Regendauer Solar Windben
11.11.2014 00:00 6,3 C 4,4 C 95 % 1009,9 hPa 0,0 l/m 0 min 0 min 0 W/m 10,5 km/h (2 Bft)
11.11.2014 00:02 6,3 C 4,4 C 94 % 1009,9 hPa 0,0 l/m 0 min 0 min 0 W/m 10,5 km/h (2 Bft)
11.11.2014 00:05 6,3 C 4,4 C 94 % 1009,9 hPa 0,0 l/m 0 min 0 min 0 W/m 10,5 km/h (2 Bft)
11.11.2014 00:06 6,3 C 4,4 C 94 % 1009,9 hPa 0,0 l/m 0 min 0 min 0 W/m 6,3 km/h (2 Bft)
11.11.2014 00:08 6,3 C 4,4 C 94 % 1009,9 hPa 0,0 l/m 0 min 0 min 0 W/m 8,4 km/h (2 Bft)
11.11.2014 00:10 6,2 C 4,4 C 94 % 1009,9 hPa 0,0 l/m 0 min 0 min 0 W/m 8,4 km/h (2 Bft)
11.11.2014 00:12 6,2 C 4,4 C 95 % 1009,8 hPa 0,0 l/m 0 min 0 min 0 W/m 8,4 km/h (2 Bft)
11.11.2014 00:14 6,2 C 4,4 C 95 % 1009,8 hPa 0,0 l/m 0 min 0 min 0 W/m 8,4 km/h (2 Bft)
11.11.2014 00:16 6,2 C 4,4 C 95 % 1009,8 hPa 0,0 l/m 0 min 0 min 0 W/m 10,5 km/h (2 Bft)
11.11.2014 00:18 6,2 C 4,4 C 95 % 1009,8 hPa 0,0 l/m 0 min 0 min 0 W/m 10,5 km/h (2 Bft)
11.11.2014 00:20 6,2 C 4,4 C 95 % 1009,9 hPa 0,0 l/m 0 min 0 min 0 W/m 8,4 km/h (2 Bft)
11.11.2014 00:22 6,2 C 4,4 C 95 % 1009,9 hPa 0,0 l/m 0 min 0 min 0 W/m 10,5 km/h (2 Bft)
11.11.2014 00:24 6,2 C 4,4 C 95 % 1009,8 hPa 0,0 l/m 0 min 0 min 0 W/m 8,4 km/h (2 Bft)
11.11.2014 00:26 6,2 C 4,4 C 95 % 1009,9 hPa 0,0 l/m 0 min 0 min 0 W/m 8,4 km/h (2 Bft)
11.11.2014 00:28 6,2 C 4,4 C 95 % 1009,8 hPa 0,0 l/m 0 min 0 min 0 W/m 8,4 km/h (2 Bft)
11.11.2014 00:30 6,2 C 4,4 C 95 % 1009,9 hPa 0,0 l/m 0 min 0 min 0 W/m 8,4 km/h (2 Bft)
11.11.2014 00:32 6,2 C 4,4 C 95 % 1009,9 hPa 0,0 l/m 0 min 0 min 0 W/m 8,4 km/h (2 Bft)
11.11.2014 00:34 6,2 C 4,4 C 95 % 1009,9 hPa 0,0 l/m 0 min 0 min 0 W/m 10,5 km/h (2 Bft)
11.11.2014 00:36 6,2 C 4,4 C 95 % 1009,8 hPa 0,0 l/m 0 min 0 min 0 W/m 8,4 km/h (2 Bft)
11.11.2014 00:38 6,2 C 4,4 C 95 % 1009,9 hPa 0,0 l/m 0 min 0 min 0 W/m 8,4 km/h (2 Bft)
11.11.2014 00:40 6,2 C 4,4 C 95 % 1009,8 hPa 0,0 l/m 0 min 0 min 0 W/m 8,4 km/h (2 Bft)
11.11.2014 00:42 6,2 C 4,4 C 95 % 1009,9 hPa 0,0 l/m 0 min 0 min 0 W/m 8,4 km/h (2 Bft)
11.11.2014 00:44 6,2 C 4,4 C 95 % 1009,9 hPa 0,0 l/m 0 min 0 min 0 W/m 8,4 km/h (2 Bft)
11.11.2014 00:46 6,2 C 4,4 C 95 % 1009,9 hPa 0,0 l/m 0 min 0 min 0 W/m 12,6 km/h (3 Bft)
11.11.2014 00:48 6,2 C 4,4 C 95 % 1009,9 hPa 0,0 l/m 0 min 0 min 0 W/m 8,4 km/h (2 Bft)
11.11.2014 00:50 6,2 C 4,4 C 95 % 1010,0 hPa 0,0 l/m 0 min 0 min 0 W/m 8,4 km/h (2 Bft)
11.11.2014 00:52 6,2 C 4,4 C 95 % 1010,0 hPa 0,0 l/m 0 min 0 min 0 W/m 8,4 km/h (2 Bft)
11.11.2014 00:54 6,2 C 4,4 C 95 % 1010,0 hPa 0,0 l/m 0 min 0 min 0 W/m 10,5 km/h (2 Bft)
11.11.2014 00:56 6,2 C 4,4 C 95 % 1010,0 hPa 0,0 l/m 0 min 0 min 0 W/m 10,5 km/h (2 Bft)
11.11.2014 00:58 6,2 C 4,4 C 95 % 1009,9 hPa 0,0 l/m 0 min 0 min 0 W/m 8,4 km/h (2 Bft)
11.11.2014 01:00 6,2 C 4,4 C 95 % 1009,9 hPa 0,0 l/m 0 min 0 min 0 W/m 14,6 km/h (3 Bft)
11.11.2014 01:02 6,2 C 4,4 C 95 % 1009,9 hPa 0,0 l/m 0 min 0 min 0 W/m 10,5 km/h (2 Bft)
11.11.2014 01:04 6,2 C 4,4 C 95 % 1009,8 hPa 0,0 l/m 0 min 0 min 0 W/m 10,5 km/h (2 Bft)
11.11.2014 01:06 6,2 C 4,4 C 95 % 1009,8 hPa 0,0 l/m 0 min 0 min 0 W/m 14,6 km/h (3 Bft)
11.11.2014 01:08 6,2 C 4,4 C 95 % 1009,8 hPa 0,0 l/m 0 min 0 min 0 W/m 14,6 km/h (3 Bft)
11.11.2014 01:10 6,2 C 4,4 C 95 % 1009,8 hPa 0,0 l/m 0 min 0 min 0 W/m 14,6 km/h (3 Bft)
11.11.2014 01:12 6,2 C 4,4 C 95 % 1009,8 hPa 0,0 l/m 0 min 0 min 0 W/m 12,6 km/h (3 Bft)
11.11.2014 01:14 6,2 C 4,4 C 95 % 1009,7 hPa 0,0 l/m 0 min 0 min 0 W/m 14,6 km/h (3 Bft)
11.11.2014 01:16 6,2 C 4,4 C 95 % 1009,7 hPa 0,0 l/m 0 min 0 min 0 W/m 14,6 km/h (3 Bft)
11.11.2014 01:18 6,2 C 5,0 C 96 % 1009,7 hPa 0,0 l/m 0 min 0 min 0 W/m 14,6 km/h (3 Bft)
11.11.2014 01:20 6,2 C 5,0 C 96 % 1009,7 hPa 0,0 l/m 0 min 0 min 0 W/m 12,6 km/h (3 Bft)
11.11.2014 01:22 6,2 C 5,0 C 96 % 1009,7 hPa 0,0 l/m 0 min 0 min 0 W/m 12,6 km/h (3 Bft)
11.11.2014 01:24 6,3 C 5,0 C 96 % 1009,8 hPa 0,0 l/m 0 min 0 min 0 W/m 18,8 km/h (3 Bft)
11.11.2014 01:26 6,3 C 5,0 C 96 % 1009,8 hPa 0,0 l/m 0 min 0 min 0 W/m 14,6 km/h (3 Bft)
11.11.2014 01:28 6,3 C 5,0 C 96 % 1009,7 hPa 0,0 l/m 0 min 0 min 0 W/m 14,6 km/h (3 Bft)
11.11.2014 01:30 6,3 C 5,0 C 96 % 1009,7 hPa 0,0 l/m 0 min 0 min 0 W/m 16,7 km/h (3 Bft)
11.11.2014 01:32 6,3 C 5,0 C 96 % 1009,7 hPa 0,0 l/m 0 min 0 min 0 W/m 10,5 km/h (2 Bft)
11.11.2014 01:34 6,4 C 5,0 C 96 % 1009,7 hPa 0,0 l/m 0 min 0 min 0 W/m 16,7 km/h (3 Bft)
11.11.2014 01:36 6,4 C 5,0 C 96 % 1009,7 hPa 0,0 l/m 0 min 0 min 0 W/m 16,7 km/h (3 Bft)
11.11.2014 01:38 6,4 C 5,0 C 96 % 1009,7 hPa 0,0 l/m 0 min 0 min 0 W/m 12,6 km/h (3 Bft)
11.11.2014 01:40 6,4 C 5,0 C 96 % 1009,7 hPa 0,0 l/m 0 min 0 min 0 W/m 16,7 km/h (3 Bft)
11.11.2014 01:42 6,4 C 5,0 C 96 % 1009,7 hPa 0,0 l/m 0 min 0 min 0 W/m 14,6 km/h (3 Bft)
11.11.2014 01:44 6,4 C 5,0 C 96 % 1009,7 hPa 0,0 l/m 0 min 0 min 0 W/m 12,6 km/h (3 Bft)
11.11.2014 01:46 6,4 C 5,0 C 96 % 1009,7 hPa 0,0 l/m 0 min 0 min 0 W/m 20,9 km/h (4 Bft)
11.11.2014 01:48 6,4 C 5,0 C 96 % 1009,7 hPa 0,0 l/m 0 min 0 min 0 W/m 14,6 km/h (3 Bft)
11.11.2014 01:50 6,4 C 5,0 C 96 % 1009,7 hPa 0,0 l/m 0 min 0 min 0 W/m 20,9 km/h (4 Bft)
11.11.2014 01:52 6,4 C 5,0 C 96 % 1009,7 hPa 0,0 l/m 0 min 0 min 0 W/m 14,6 km/h (3 Bft)
11.11.2014 01:54 6,4 C 5,0 C 96 % 1009,6 hPa 0,0 l/m 0 min 0 min 0 W/m 12,6 km/h (3 Bft)
11.11.2014 01:56 6,4 C 5,0 C 96 % 1009,6 hPa 0,0 l/m 0 min 0 min 0 W/m 12,6 km/h (3 Bft)
11.11.2014 01:58 6,4 C 5,0 C 96 % 1009,6 hPa 0,0 l/m 0 min 0 min 0 W/m 12,6 km/h (3 Bft)
11.11.2014 02:00 6,4 C 5,0 C 96 % 1009,6 hPa 0,0 l/m 0 min 0 min 0 W/m 16,7 km/h (3 Bft)
11.11.2014 02:02 6,5 C 5,0 C 96 % 1009,6 hPa 0,0 l/m 0 min 0 min 0 W/m 14,6 km/h (3 Bft)
11.11.2014 02:04 6,5 C 5,0 C 96 % 1009,6 hPa 0,0 l/m 0 min 0 min 0 W/m 14,6 km/h (3 Bft)
11.11.2014 02:06 6,5 C 5,0 C 96 % 1009,6 hPa 0,0 l/m 0 min 0 min 0 W/m 16,7 km/h (3 Bft)
11.11.2014 02:08 6,5 C 5,0 C 96 % 1009,6 hPa 0,0 l/m 0 min 0 min 0 W/m 12,6 km/h (3 Bft)
11.11.2014 02:10 6,5 C 5,0 C 96 % 1009,6 hPa 0,0 l/m 0 min 0 min 0 W/m 14,6 km/h (3 Bft)
11.11.2014 02:12 6,5 C 5,0 C 97 % 1009,6 hPa 0,0 l/m 0 min 0 min 0 W/m 18,8 km/h (3 Bft)
11.11.2014 02:14 6,5 C 5,0 C 97 % 1009,7 hPa 0,0 l/m 0 min 0 min 0 W/m 20,9 km/h (4 Bft)
11.11.2014 02:16 6,5 C 5,0 C 97 % 1009,7 hPa 0,0 l/m 0 min 0 min 0 W/m 16,7 km/h (3 Bft)
11.11.2014 02:18 6,6 C 5,0 C 97 % 1009,6 hPa 0,0 l/m 0 min 0 min 0 W/m 16,7 km/h (3 Bft)
11.11.2014 02:20 6,6 C 5,0 C 97 % 1009,6 hPa 0,0 l/m 0 min 0 min 0 W/m 16,7 km/h (3 Bft)
11.11.2014 02:22 6,6 C 5,0 C 97 % 1009,6 hPa 0,0 l/m 0 min 0 min 0 W/m 20,9 km/h (4 Bft)
11.11.2014 02:24 6,6 C 5,0 C 97 % 1009,6 hPa 0,0 l/m 0 min 0 min 0 W/m 10,5 km/h (2 Bft)
11.11.2014 02:26 6,6 C 5,0 C 97 % 1009,6 hPa 0,0 l/m 0 min 0 min 0 W/m 14,6 km/h (3 Bft)
11.11.2014 02:28 6,6 C 5,0 C 97 % 1009,6 hPa 0,0 l/m 0 min 0 min 0 W/m 14,6 km/h (3 Bft)
11.11.2014 02:30 6,6 C 5,0 C 97 % 1009,6 hPa 0,0 l/m 0 min 0 min 0 W/m 16,7 km/h (3 Bft)
11.11.2014 02:32 6,6 C 5,0 C 97 % 1009,6 hPa 0,0 l/m 0 min 0 min 0 W/m 16,7 km/h (3 Bft)
11.11.2014 02:34 6,6 C 5,0 C 97 % 1009,6 hPa 0,0 l/m 0 min 0 min 0 W/m 18,8 km/h (3 Bft)
11.11.2014 02:36 6,6 C 5,0 C 97 % 1009,6 hPa 0,0 l/m 0 min 0 min 0 W/m 20,9 km/h (4 Bft)
11.11.2014 02:38 6,6 C 5,0 C 97 % 1009,6 hPa 0,0 l/m 0 min 0 min 0 W/m 20,9 km/h (4 Bft)
11.11.2014 02:40 6,6 C 5,0 C 97 % 1009,6 hPa 0,0 l/m 0 min 0 min 0 W/m 16,7 km/h (3 Bft)
11.11.2014 02:42 6,6 C 5,0 C 97 % 1009,6 hPa 0,0 l/m 0 min 0 min 0 W/m 12,6 km/h (3 Bft)
11.11.2014 02:44 6,6 C 5,0 C 97 % 1009,6 hPa 0,0 l/m 0 min 0 min 0 W/m 14,6 km/h (3 Bft)
11.11.2014 02:46 6,6 C 5,6 C 97 % 1009,6 hPa 0,0 l/m 0 min 0 min 0 W/m 16,7 km/h (3 Bft)
11.11.2014 02:48 6,7 C 5,6 C 97 % 1009,6 hPa 0,0 l/m 0 min 0 min 0 W/m 20,9 km/h (4 Bft)
11.11.2014 02:50 6,7 C 5,6 C 97 % 1009,6 hPa 0,0 l/m 0 min 0 min 0 W/m 14,6 km/h (3 Bft)
11.11.2014 02:52 6,7 C 5,6 C 97 % 1009,6 hPa 0,0 l/m 0 min 0 min 0 W/m 20,9 km/h (4 Bft)
11.11.2014 02:54 6,7 C 5,6 C 97 % 1009,6 hPa 0,0 l/m 0 min 0 min 0 W/m 20,9 km/h (4 Bft)
11.11.2014 02:56 6,7 C 5,6 C 97 % 1009,6 hPa 0,0 l/m 0 min 0 min 0 W/m 16,7 km/h (3 Bft)
11.11.2014 02:58 6,7 C 5,6 C 97 % 1009,7 hPa 0,0 l/m 0 min 0 min 0 W/m 23,0 km/h (4 Bft)
11.11.2014 03:00 6,7 C 5,6 C 97 % 1009,6 hPa 0,0 l/m 0 min 0 min 0 W/m 23,0 km/h (4 Bft)
11.11.2014 03:02 6,7 C 5,0 C 97 % 1009,6 hPa 0,0 l/m 0 min 0 min 0 W/m 16,7 km/h (3 Bft)
11.11.2014 03:04 6,7 C 5,0 C 97 % 1009,6 hPa 0,0 l/m 0 min 0 min 0 W/m 16,7 km/h (3 Bft)
11.11.2014 03:06 6,7 C 5,0 C 97 % 1009,6 hPa 0,0 l/m 0 min 0 min 0 W/m 20,9 km/h (4 Bft)
11.11.2014 03:08 6,7 C 5,0 C 97 % 1009,6 hPa 0,0 l/m 0 min 0 min 0 W/m 16,7 km/h (3 Bft)
11.11.2014 03:10 6,7 C 5,0 C 97 % 1009,5 hPa 0,0 l/m 0 min 0 min 0 W/m 14,6 km/h (3 Bft)
11.11.2014 03:12 6,7 C 5,0 C 97 % 1009,5 hPa 0,0 l/m 0 min 0 min 0 W/m 18,8 km/h (3 Bft)
11.11.2014 03:14 6,7 C 5,0 C 97 % 1009,5 hPa 0,0 l/m 0 min 0 min 0 W/m 14,6 km/h (3 Bft)
11.11.2014 03:16 6,6 C 5,0 C 97 % 1009,5 hPa 0,0 l/m 0 min 2 min 0 W/m 14,6 km/h (3 Bft)
11.11.2014 03:18 6,6 C 5,0 C 97 % 1009,4 hPa 0,2 l/m 0 min 2 min 0 W/m 18,8 km/h (3 Bft)
11.11.2014 03:20 6,6 C 5,0 C 97 % 1009,5 hPa 0,0 l/m 0 min 0 min 0 W/m 18,8 km/h (3 Bft)
11.11.2014 03:22 6,6 C 5,0 C 97 % 1009,4 hPa 0,0 l/m 0 min 0 min 0 W/m 20,9 km/h (4 Bft)
11.11.2014 03:24 6,6 C 5,0 C 97 % 1009,4 hPa 0,0 l/m 0 min 0 min 0 W/m 20,9 km/h (4 Bft)
11.11.2014 03:26 6,6 C 5,0 C 97 % 1009,4 hPa 0,0 l/m 0 min 0 min 0 W/m 18,8 km/h (3 Bft)
11.11.2014 03:28 6,6 C 5,0 C 97 % 1009,3 hPa 0,0 l/m 0 min 0 min 0 W/m 14,6 km/h (3 Bft)
11.11.2014 03:30 6,6 C 5,0 C 97 % 1009,3 hPa 0,0 l/m 0 min 0 min 0 W/m 18,8 km/h (3 Bft)
11.11.2014 03:32 6,6 C 5,0 C 97 % 1009,2 hPa 0,0 l/m 0 min 0 min 0 W/m 23,0 km/h (4 Bft)
11.11.2014 03:34 6,6 C 5,0 C 97 % 1009,3 hPa 0,0 l/m 0 min 0 min 0 W/m 16,7 km/h (3 Bft)
11.11.2014 03:36 6,6 C 5,0 C 97 % 1009,3 hPa 0,0 l/m 0 min 0 min 0 W/m 18,8 km/h (3 Bft)
11.11.2014 03:38 6,6 C 5,0 C 97 % 1009,2 hPa 0,0 l/m 0 min 0 min 0 W/m 18,8 km/h (3 Bft)
11.11.2014 03:40 6,6 C 5,0 C 97 % 1009,2 hPa 0,0 l/m 0 min 0 min 0 W/m 14,6 km/h (3 Bft)
11.11.2014 03:42 6,6 C 5,0 C 97 % 1009,2 hPa 0,0 l/m 0 min 0 min 0 W/m 16,7 km/h (3 Bft)
11.11.2014 03:44 6,5 C 5,0 C 97 % 1009,3 hPa 0,0 l/m 0 min 0 min 0 W/m 14,6 km/h (3 Bft)
11.11.2014 03:46 6,5 C 5,0 C 97 % 1009,3 hPa 0,0 l/m 0 min 0 min 0 W/m 23,0 km/h (4 Bft)
11.11.2014 03:48 6,5 C 5,0 C 97 % 1009,2 hPa 0,0 l/m 0 min 0 min 0 W/m 18,8 km/h (3 Bft)
11.11.2014 03:50 6,5 C 5,0 C 97 % 1009,2 hPa 0,0 l/m 0 min 0 min 0 W/m 20,9 km/h (4 Bft)
11.11.2014 03:52 6,5 C 5,0 C 97 % 1009,2 hPa 0,0 l/m 0 min 0 min 0 W/m 23,0 km/h (4 Bft)
11.11.2014 03:54 6,5 C 5,0 C 97 % 1009,2 hPa 0,0 l/m 0 min 0 min 0 W/m 25,1 km/h (4 Bft)
11.11.2014 03:56 6,5 C 5,0 C 97 % 1009,2 hPa 0,0 l/m 0 min 0 min 0 W/m 16,7 km/h (3 Bft)
11.11.2014 03:58 6,5 C 5,0 C 97 % 1009,2 hPa 0,0 l/m 0 min 0 min 0 W/m 25,1 km/h (4 Bft)
11.11.2014 04:00 6,5 C 5,0 C 97 % 1009,2 hPa 0,0 l/m 0 min 0 min 0 W/m 16,7 km/h (3 Bft)
11.11.2014 04:02 6,5 C 5,0 C 97 % 1009,2 hPa 0,0 l/m 0 min 0 min 0 W/m 20,9 km/h (4 Bft)
11.11.2014 04:04 6,5 C 5,0 C 97 % 1009,3 hPa 0,0 l/m 0 min 0 min 0 W/m 20,9 km/h (4 Bft)
11.11.2014 04:06 6,5 C 5,0 C 97 % 1009,3 hPa 0,0 l/m 0 min 0 min 0 W/m 18,8 km/h (3 Bft)
11.11.2014 04:08 6,5 C 5,0 C 97 % 1009,3 hPa 0,0 l/m 0 min 0 min 0 W/m 14,6 km/h (3 Bft)
11.11.2014 04:10 6,5 C 5,0 C 97 % 1009,2 hPa 0,0 l/m 0 min 0 min 0 W/m 16,7 km/h (3 Bft)
11.11.2014 04:12 6,5 C 5,0 C 97 % 1009,1 hPa 0,0 l/m 0 min 0 min 0 W/m 14,6 km/h (3 Bft)
11.11.2014 04:14 6,5 C 5,0 C 97 % 1009,1 hPa 0,0 l/m 0 min 0 min 0 W/m 23,0 km/h (4 Bft)
11.11.2014 04:16 6,5 C 5,0 C 97 % 1009,1 hPa 0,0 l/m 0 min 0 min 0 W/m 14,6 km/h (3 Bft)
11.11.2014 04:18 6,5 C 5,0 C 97 % 1009,2 hPa 0,0 l/m 0 min 0 min 0 W/m 16,7 km/h (3 Bft)
11.11.2014 04:20 6,5 C 5,0 C 97 % 1009,1 hPa 0,0 l/m 0 min 0 min 0 W/m 14,6 km/h (3 Bft)
11.11.2014 04:22 6,6 C 5,0 C 97 % 1009,2 hPa 0,0 l/m 0 min 0 min 0 W/m 16,7 km/h (3 Bft)
11.11.2014 04:24 6,6 C 5,0 C 97 % 1009,1 hPa 0,0 l/m 0 min 0 min 0 W/m 18,8 km/h (3 Bft)
11.11.2014 04:26 6,6 C 5,0 C 97 % 1008,9 hPa 0,0 l/m 0 min 0 min 0 W/m 23,0 km/h (4 Bft)
11.11.2014 04:28 6,6 C 5,0 C 97 % 1009,0 hPa 0,0 l/m 0 min 0 min 0 W/m 23,0 km/h (4 Bft)
11.11.2014 04:30 6,6 C 5,0 C 97 % 1008,9 hPa 0,0 l/m 0 min 0 min 0 W/m 18,8 km/h (3 Bft)
11.11.2014 04:32 6,6 C 5,0 C 97 % 1009,0 hPa 0,0 l/m 0 min 0 min 0 W/m 16,7 km/h (3 Bft)
11.11.2014 04:34 6,6 C 5,0 C 97 % 1009,0 hPa 0,0 l/m 0 min 0 min 0 W/m 18,8 km/h (3 Bft)
11.11.2014 04:36 6,6 C 5,0 C 97 % 1008,9 hPa 0,0 l/m 0 min 0 min 0 W/m 16,7 km/h (3 Bft)
11.11.2014 04:38 6,6 C 5,6 C 97 % 1009,0 hPa 0,0 l/m 0 min 0 min 0 W/m 18,8 km/h (3 Bft)
11.11.2014 04:40 6,6 C 5,6 C 97 % 1009,0 hPa 0,0 l/m 0 min 0 min 0 W/m 16,7 km/h (3 Bft)
11.11.2014 04:42 6,6 C 5,0 C 97 % 1009,0 hPa 0,0 l/m 0 min 0 min 0 W/m 23,0 km/h (4 Bft)
11.11.2014 04:44 6,6 C 5,0 C 97 % 1008,9 hPa 0,0 l/m 0 min 0 min 0 W/m 23,0 km/h (4 Bft)
11.11.2014 04:46 6,6 C 5,0 C 97 % 1008,9 hPa 0,0 l/m 0 min 0 min 0 W/m 16,7 km/h (3 Bft)
11.11.2014 04:48 6,6 C 5,0 C 97 % 1008,8 hPa 0,0 l/m 0 min 0 min 0 W/m 18,8 km/h (3 Bft)
11.11.2014 04:50 6,6 C 5,0 C 97 % 1008,8 hPa 0,0 l/m 0 min 0 min 0 W/m 27,2 km/h (4 Bft)
11.11.2014 04:52 6,6 C 5,0 C 97 % 1008,8 hPa 0,0 l/m 0 min 0 min 0 W/m 18,8 km/h (3 Bft)
11.11.2014 04:54 6,6 C 5,0 C 97 % 1008,7 hPa 0,0 l/m 0 min 0 min 0 W/m 20,9 km/h (4 Bft)
11.11.2014 04:56 6,6 C 5,0 C 97 % 1008,7 hPa 0,0 l/m 0 min 0 min 0 W/m 20,9 km/h (4 Bft)
11.11.2014 04:58 6,6 C 5,0 C 97 % 1008,7 hPa 0,0 l/m 0 min 0 min 0 W/m 20,9 km/h (4 Bft)
11.11.2014 05:00 6,6 C 5,0 C 97 % 1008,7 hPa 0,0 l/m 0 min 0 min 0 W/m 18,8 km/h (3 Bft)
11.11.2014 05:02 6,6 C 5,6 C 97 % 1008,7 hPa 0,0 l/m 0 min 0 min 0 W/m 18,8 km/h (3 Bft)
11.11.2014 05:04 6,6 C 5,6 C 97 % 1008,7 hPa 0,0 l/m 0 min 0 min 0 W/m 18,8 km/h (3 Bft)
11.11.2014 05:06 6,6 C 5,6 C 97 % 1008,7 hPa 0,0 l/m 0 min 0 min 0 W/m 25,1 km/h (4 Bft)
11.11.2014 05:08 6,7 C 5,6 C 98 % 1008,7 hPa 0,0 l/m 0 min 0 min 0 W/m 20,9 km/h (4 Bft)
11.11.2014 05:10 6,7 C 5,6 C 98 % 1008,7 hPa 0,0 l/m 0 min 0 min 0 W/m 23,0 km/h (4 Bft)
11.11.2014 05:12 6,8 C 6,1 C 98 % 1008,7 hPa 0,0 l/m 0 min 0 min 0 W/m 18,8 km/h (3 Bft)
11.11.2014 05:14 6,8 C 6,1 C 98 % 1008,7 hPa 0,0 l/m 0 min 0 min 0 W/m 20,9 km/h (4 Bft)
11.11.2014 05:16 6,9 C 6,1 C 98 % 1008,6 hPa 0,0 l/m 0 min 0 min 0 W/m 18,8 km/h (3 Bft)
11.11.2014 05:18 6,9 C 6,1 C 98 % 1008,6 hPa 0,0 l/m 0 min 0 min 0 W/m 27,2 km/h (4 Bft)
11.11.2014 05:20 7,0 C 6,1 C 98 % 1008,6 hPa 0,0 l/m 0 min 0 min 0 W/m 25,1 km/h (4 Bft)
11.11.2014 05:22 7,1 C 6,1 C 98 % 1008,6 hPa 0,0 l/m 0 min 0 min 0 W/m 18,8 km/h (3 Bft)
11.11.2014 05:24 7,1 C 6,1 C 98 % 1008,6 hPa 0,0 l/m 0 min 0 min 0 W/m 25,1 km/h (4 Bft)
11.11.2014 05:26 7,1 C 6,1 C 98 % 1008,6 hPa 0,0 l/m 0 min 0 min 0 W/m 18,8 km/h (3 Bft)
11.11.2014 05:28 7,2 C 6,1 C 98 % 1008,6 hPa 0,0 l/m 0 min 0 min 0 W/m 25,1 km/h (4 Bft)
11.11.2014 05:30 7,2 C 6,7 C 98 % 1008,6 hPa 0,0 l/m 0 min 0 min 0 W/m 27,2 km/h (4 Bft)
11.11.2014 05:32 7,3 C 6,7 C 98 % 1008,5 hPa 0,0 l/m 0 min 0 min 0 W/m 27,2 km/h (4 Bft)
11.11.2014 05:34 7,3 C 6,7 C 98 % 1008,6 hPa 0,0 l/m 0 min 0 min 0 W/m 27,2 km/h (4 Bft)
11.11.2014 05:36 7,3 C 6,7 C 98 % 1008,6 hPa 0,0 l/m 0 min 0 min 0 W/m 20,9 km/h (4 Bft)
11.11.2014 05:38 7,4 C 6,7 C 98 % 1008,6 hPa 0,0 l/m 0 min 0 min 0 W/m 29,3 km/h (5 Bft)
11.11.2014 05:40 7,4 C 6,7 C 98 % 1008,6 hPa 0,0 l/m 0 min 0 min 0 W/m 16,7 km/h (3 Bft)
11.11.2014 05:42 7,4 C 6,7 C 98 % 1008,5 hPa 0,0 l/m 0 min 0 min 0 W/m 31,4 km/h (5 Bft)
11.11.2014 05:44 7,4 C 6,7 C 98 % 1008,5 hPa 0,0 l/m 0 min 0 min 0 W/m 16,7 km/h (3 Bft)
11.11.2014 05:46 7,5 C 6,7 C 98 % 1008,5 hPa 0,0 l/m 0 min 0 min 0 W/m 20,9 km/h (4 Bft)
11.11.2014 05:48 7,5 C 6,7 C 98 % 1008,5 hPa 0,0 l/m 0 min 0 min 0 W/m 23,0 km/h (4 Bft)
11.11.2014 05:50 7,5 C 6,7 C 98 % 1008,5 hPa 0,0 l/m 0 min 0 min 0 W/m 27,2 km/h (4 Bft)
11.11.2014 05:52 7,6 C 6,7 C 98 % 1008,5 hPa 0,0 l/m 0 min 0 min 0 W/m 27,2 km/h (4 Bft)
11.11.2014 05:54 7,6 C 6,7 C 98 % 1008,6 hPa 0,0 l/m 0 min 0 min 0 W/m 25,1 km/h (4 Bft)
11.11.2014 05:56 7,6 C 6,7 C 98 % 1008,5 hPa 0,0 l/m 0 min 0 min 0 W/m 23,0 km/h (4 Bft)
11.11.2014 05:58 7,6 C 6,7 C 98 % 1008,5 hPa 0,0 l/m 0 min 0 min 0 W/m 20,9 km/h (4 Bft)
11.11.2014 06:00 7,6 C 6,7 C 98 % 1008,5 hPa 0,0 l/m 0 min 0 min 0 W/m 27,2 km/h (4 Bft)
11.11.2014 06:02 7,7 C 6,7 C 98 % 1008,4 hPa 0,0 l/m 0 min 0 min 0 W/m 23,0 km/h (4 Bft)
11.11.2014 06:06 7,7 C 6,7 C 98 % 1008,4 hPa 0,0 l/m 0 min 0 min 0 W/m 27,2 km/h (4 Bft)
11.11.2014 06:08 7,7 C 6,7 C 98 % 1008,3 hPa 0,0 l/m 0 min 0 min 0 W/m 25,1 km/h (4 Bft)
11.11.2014 06:10 7,8 C 7,2 C 98 % 1008,4 hPa 0,0 l/m 0 min 0 min 0 W/m 14,6 km/h (3 Bft)
11.11.2014 06:12 7,8 C 7,2 C 98 % 1008,4 hPa 0,0 l/m 0 min 0 min 0 W/m 18,8 km/h (3 Bft)
11.11.2014 06:14 7,8 C 7,2 C 98 % 1008,4 hPa 0,0 l/m 0 min 0 min 0 W/m 18,8 km/h (3 Bft)
11.11.2014 06:16 7,8 C 7,2 C 98 % 1008,4 hPa 0,0 l/m 0 min 0 min 0 W/m 27,2 km/h (4 Bft)
11.11.2014 06:18 7,9 C 7,2 C 98 % 1008,3 hPa 0,0 l/m 0 min 0 min 0 W/m 23,0 km/h (4 Bft)
11.11.2014 06:20 7,9 C 7,2 C 98 % 1008,3 hPa 0,0 l/m 0 min 0 min 0 W/m 25,1 km/h (4 Bft)
11.11.2014 06:22 7,9 C 7,2 C 98 % 1008,3 hPa 0,0 l/m 0 min 0 min 0 W/m 20,9 km/h (4 Bft)
11.11.2014 06:24 7,9 C 7,2 C 98 % 1008,3 hPa 0,0 l/m 0 min 0 min 0 W/m 23,0 km/h (4 Bft)
11.11.2014 06:26 7,9 C 7,2 C 98 % 1008,2 hPa 0,0 l/m 0 min 0 min 0 W/m 29,3 km/h (5 Bft)
11.11.2014 06:28 7,9 C 7,2 C 98 % 1008,1 hPa 0,0 l/m 0 min 0 min 0 W/m 23,0 km/h (4 Bft)
11.11.2014 06:30 8,0 C 7,2 C 98 % 1008,2 hPa 0,0 l/m 0 min 0 min 0 W/m 20,9 km/h (4 Bft)
11.11.2014 06:32 8,0 C 7,2 C 98 % 1008,1 hPa 0,0 l/m 0 min 0 min 0 W/m 31,4 km/h (5 Bft)
11.11.2014 06:34 8,1 C 7,2 C 98 % 1008,1 hPa 0,0 l/m 0 min 0 min 0 W/m 23,0 km/h (4 Bft)
11.11.2014 06:36 8,1 C 7,2 C 98 % 1008,2 hPa 0,0 l/m 0 min 0 min 0 W/m 25,1 km/h (4 Bft)
11.11.2014 06:38 8,1 C 7,2 C 98 % 1008,0 hPa 0,0 l/m 0 min 0 min 0 W/m 31,4 km/h (5 Bft)
11.11.2014 06:40 8,1 C 7,2 C 98 % 1008,0 hPa 0,0 l/m 0 min 0 min 0 W/m 18,8 km/h (3 Bft)
11.11.2014 06:42 8,2 C 7,2 C 98 % 1008,0 hPa 0,0 l/m 0 min 0 min 0 W/m 25,1 km/h (4 Bft)
11.11.2014 06:44 8,2 C 7,2 C 98 % 1007,9 hPa 0,0 l/m 0 min 0 min 0 W/m 23,0 km/h (4 Bft)
11.11.2014 06:46 8,2 C 7,2 C 98 % 1007,9 hPa 0,0 l/m 0 min 0 min 0 W/m 23,0 km/h (4 Bft)
11.11.2014 06:48 8,2 C 7,2 C 98 % 1007,9 hPa 0,0 l/m 0 min 0 min 0 W/m 18,8 km/h (3 Bft)
11.11.2014 06:50 8,2 C 7,2 C 98 % 1007,9 hPa 0,0 l/m 0 min 0 min 0 W/m 18,8 km/h (3 Bft)
11.11.2014 06:52 8,2 C 7,2 C 98 % 1007,8 hPa 0,0 l/m 0 min 0 min 0 W/m 25,1 km/h (4 Bft)
11.11.2014 06:54 8,2 C 7,2 C 98 % 1007,8 hPa 0,0 l/m 0 min 0 min 0 W/m 18,8 km/h (3 Bft)
11.11.2014 06:56 8,3 C 7,2 C 98 % 1007,8 hPa 0,0 l/m 0 min 0 min 0 W/m 33,5 km/h (5 Bft)
11.11.2014 06:58 8,3 C 7,2 C 98 % 1007,8 hPa 0,0 l/m 0 min 0 min 0 W/m 25,1 km/h (4 Bft)
11.11.2014 07:00 8,3 C 7,2 C 98 % 1007,8 hPa 0,0 l/m 0 min 0 min 0 W/m 20,9 km/h (4 Bft)
11.11.2014 07:02 8,3 C 7,2 C 98 % 1007,8 hPa 0,0 l/m 0 min 0 min 0 W/m 18,8 km/h (3 Bft)
11.11.2014 07:04 8,3 C 7,8 C 98 % 1007,8 hPa 0,0 l/m 0 min 0 min 0 W/m 23,0 km/h (4 Bft)
11.11.2014 07:06 8,4 C 7,8 C 98 % 1007,7 hPa 0,0 l/m 0 min 0 min 0 W/m 20,9 km/h (4 Bft)
11.11.2014 07:08 8,4 C 7,8 C 98 % 1007,8 hPa 0,0 l/m 0 min 0 min 0 W/m 23,0 km/h (4 Bft)
11.11.2014 07:10 8,4 C 7,8 C 98 % 1007,8 hPa 0,0 l/m 0 min 0 min 0 W/m 18,8 km/h (3 Bft)
11.11.2014 07:12 8,4 C 7,8 C 98 % 1007,8 hPa 0,0 l/m 0 min 0 min 0 W/m 18,8 km/h (3 Bft)
11.11.2014 07:14 8,4 C 7,8 C 98 % 1007,7 hPa 0,0 l/m 0 min 0 min 0 W/m 29,3 km/h (5 Bft)
11.11.2014 07:16 8,4 C 7,8 C 98 % 1007,6 hPa 0,0 l/m 0 min 0 min 0 W/m 29,3 km/h (5 Bft)
11.11.2014 07:18 8,5 C 7,8 C 98 % 1007,7 hPa 0,0 l/m 0 min 0 min 0 W/m 23,0 km/h (4 Bft)
11.11.2014 07:20 8,5 C 7,8 C 98 % 1007,7 hPa 0,0 l/m 0 min 0 min 0 W/m 18,8 km/h (3 Bft)
11.11.2014 07:22 8,5 C 7,8 C 98 % 1007,7 hPa 0,0 l/m 0 min 0 min 0 W/m 18,8 km/h (3 Bft)
11.11.2014 07:24 8,6 C 7,8 C 98 % 1007,6 hPa 0,0 l/m 0 min 0 min 0 W/m 23,0 km/h (4 Bft)
11.11.2014 07:26 8,6 C 7,8 C 98 % 1007,7 hPa 0,0 l/m 0 min 0 min 0 W/m 27,2 km/h (4 Bft)
11.11.2014 07:28 8,6 C 7,8 C 98 % 1007,6 hPa 0,0 l/m 0 min 0 min 0 W/m 18,8 km/h (3 Bft)
11.11.2014 07:30 8,6 C 7,8 C 98 % 1007,6 hPa 0,0 l/m 0 min 0 min 0 W/m 18,8 km/h (3 Bft)
11.11.2014 07:32 8,6 C 7,8 C 98 % 1007,6 hPa 0,0 l/m 0 min 0 min 0 W/m 20,9 km/h (4 Bft)
11.11.2014 07:34 8,6 C 7,8 C 98 % 1007,6 hPa 0,0 l/m 0 min 0 min 0 W/m 23,0 km/h (4 Bft)
11.11.2014 07:36 8,6 C 7,8 C 98 % 1007,6 hPa 0,0 l/m 0 min 0 min 0 W/m 23,0 km/h (4 Bft)
11.11.2014 07:38 8,7 C 7,8 C 98 % 1007,6 hPa 0,0 l/m 0 min 0 min 0 W/m 25,1 km/h (4 Bft)
11.11.2014 07:40 8,7 C 7,8 C 98 % 1007,6 hPa 0,0 l/m 0 min 0 min 0 W/m 27,2 km/h (4 Bft)
11.11.2014 07:42 8,7 C 7,8 C 98 % 1007,6 hPa 0,0 l/m 0 min 0 min 2 W/m 20,9 km/h (4 Bft)
11.11.2014 07:44 8,7 C 7,8 C 98 % 1007,6 hPa 0,0 l/m 0 min 0 min 5 W/m 37,7 km/h (5 Bft)
11.11.2014 07:46 8,7 C 7,8 C 98 % 1007,4 hPa 0,0 l/m 0 min 0 min 5 W/m 18,8 km/h (3 Bft)
11.11.2014 07:48 8,7 C 7,8 C 98 % 1007,5 hPa 0,0 l/m 0 min 0 min 6 W/m 20,9 km/h (4 Bft)
11.11.2014 07:50 8,7 C 7,8 C 98 % 1007,6 hPa 0,0 l/m 0 min 0 min 7 W/m 29,3 km/h (5 Bft)
11.11.2014 07:52 8,7 C 7,8 C 98 % 1007,6 hPa 0,0 l/m 0 min 0 min 7 W/m 27,2 km/h (4 Bft)
11.11.2014 07:54 8,7 C 7,8 C 98 % 1007,6 hPa 0,0 l/m 0 min 0 min 7 W/m 20,9 km/h (4 Bft)
11.11.2014 07:56 8,7 C 7,8 C 98 % 1007,6 hPa 0,0 l/m 0 min 0 min 9 W/m 23,0 km/h (4 Bft)
11.11.2014 07:58 8,7 C 7,8 C 98 % 1007,6 hPa 0,0 l/m 0 min 0 min 11 W/m 29,3 km/h (5 Bft)
11.11.2014 08:00 8,8 C 7,8 C 98 % 1007,7 hPa 0,0 l/m 0 min 0 min 12 W/m 29,3 km/h (5 Bft)
11.11.2014 08:02 8,8 C 7,8 C 98 % 1007,6 hPa 0,0 l/m 0 min 0 min 13 W/m 25,1 km/h (4 Bft)
11.11.2014 08:04 8,8 C 7,8 C 98 % 1007,6 hPa 0,0 l/m 0 min 0 min 16 W/m 27,2 km/h (4 Bft)
11.11.2014 08:06 8,8 C 7,8 C 98 % 1007,7 hPa 0,0 l/m 0 min 0 min 17 W/m 31,4 km/h (5 Bft)
11.11.2014 08:08 8,8 C 7,8 C 98 % 1007,7 hPa 0,0 l/m 0 min 0 min 19 W/m 27,2 km/h (4 Bft)
11.11.2014 08:10 8,8 C 7,8 C 98 % 1007,7 hPa 0,0 l/m 0 min 0 min 22 W/m 29,3 km/h (5 Bft)
11.11.2014 08:12 8,9 C 7,8 C 98 % 1007,6 hPa 0,0 l/m 2 min 0 min 26 W/m 23,0 km/h (4 Bft)
11.11.2014 08:14 8,9 C 7,8 C 97 % 1007,6 hPa 0,0 l/m 2 min 0 min 30 W/m 29,3 km/h (5 Bft)
11.11.2014 08:16 8,9 C 7,8 C 97 % 1007,6 hPa 0,0 l/m 2 min 0 min 33 W/m 27,2 km/h (4 Bft)
11.11.2014 08:18 8,9 C 7,8 C 97 % 1007,5 hPa 0,0 l/m 2 min 0 min 38 W/m 29,3 km/h (5 Bft)
11.11.2014 08:20 8,9 C 7,8 C 97 % 1007,5 hPa 0,0 l/m 2 min 0 min 39 W/m 23,0 km/h (4 Bft)
11.11.2014 08:22 8,9 C 7,8 C 97 % 1007,5 hPa 0,0 l/m 2 min 0 min 39 W/m 16,7 km/h (3 Bft)
11.11.2014 08:24 8,9 C 7,8 C 97 % 1007,5 hPa 0,0 l/m 0 min 0 min 39 W/m 23,0 km/h (4 Bft)
11.11.2014 08:26 9,0 C 7,8 C 97 % 1007,3 hPa 0,0 l/m 0 min 0 min 39 W/m 25,1 km/h (4 Bft)
11.11.2014 08:28 9,0 C 7,8 C 97 % 1007,3 hPa 0,0 l/m 0 min 0 min 39 W/m 20,9 km/h (4 Bft)
11.11.2014 08:30 9,0 C 7,8 C 97 % 1007,3 hPa 0,0 l/m 0 min 0 min 40 W/m 27,2 km/h (4 Bft)
11.11.2014 08:32 9,0 C 7,8 C 97 % 1007,2 hPa 0,0 l/m 0 min 0 min 39 W/m 23,0 km/h (4 Bft)
11.11.2014 08:34 9,0 C 7,8 C 97 % 1007,2 hPa 0,0 l/m 0 min 0 min 39 W/m 20,9 km/h (4 Bft)
11.11.2014 08:36 9,0 C 7,8 C 97 % 1007,2 hPa 0,0 l/m 0 min 0 min 38 W/m 27,2 km/h (4 Bft)
11.11.2014 08:38 9,0 C 7,8 C 97 % 1007,1 hPa 0,0 l/m 0 min 0 min 38 W/m 16,7 km/h (3 Bft)
11.11.2014 08:40 9,0 C 7,8 C 97 % 1007,1 hPa 0,0 l/m 0 min 0 min 42 W/m 29,3 km/h (5 Bft)
11.11.2014 08:42 9,0 C 7,8 C 97 % 1007,1 hPa 0,0 l/m 0 min 0 min 47 W/m 25,1 km/h (4 Bft)
11.11.2014 08:44 9,0 C 7,8 C 97 % 1007,1 hPa 0,0 l/m 0 min 0 min 48 W/m 20,9 km/h (4 Bft)
11.11.2014 08:46 9,0 C 7,8 C 97 % 1007,2 hPa 0,0 l/m 0 min 0 min 47 W/m 16,7 km/h (3 Bft)
11.11.2014 08:48 9,0 C 7,8 C 97 % 1007,1 hPa 0,0 l/m 0 min 0 min 47 W/m 23,0 km/h (4 Bft)
11.11.2014 08:50 9,0 C 7,8 C 96 % 1007,1 hPa 0,0 l/m 0 min 0 min 53 W/m 23,0 km/h (4 Bft)
11.11.2014 08:52 9,1 C 8,3 C 96 % 1007,1 hPa 0,0 l/m 0 min 0 min 60 W/m 25,1 km/h (4 Bft)
11.11.2014 08:54 9,1 C 8,3 C 96 % 1007,1 hPa 0,0 l/m 0 min 0 min 64 W/m 23,0 km/h (4 Bft)
11.11.2014 08:56 9,1 C 8,3 C 96 % 1007,1 hPa 0,0 l/m 0 min 0 min 68 W/m 18,8 km/h (3 Bft)
11.11.2014 08:58 9,1 C 8,3 C 96 % 1007,2 hPa 0,0 l/m 0 min 0 min 74 W/m 20,9 km/h (4 Bft)
11.11.2014 09:00 9,1 C 8,3 C 96 % 1007,4 hPa 0,0 l/m 0 min 0 min 68 W/m 25,1 km/h (4 Bft)
11.11.2014 09:02 9,1 C 8,3 C 96 % 1007,5 hPa 0,0 l/m 0 min 0 min 70 W/m 16,7 km/h (3 Bft)
11.11.2014 09:04 9,1 C 8,3 C 96 % 1007,4 hPa 0,0 l/m 0 min 0 min 68 W/m 14,6 km/h (3 Bft)
11.11.2014 09:06 9,1 C 8,3 C 96 % 1007,5 hPa 0,0 l/m 0 min 0 min 63 W/m 18,8 km/h (3 Bft)
11.11.2014 09:08 9,2 C 8,3 C 96 % 1007,5 hPa 0,0 l/m 0 min 0 min 59 W/m 14,6 km/h (3 Bft)
11.11.2014 09:10 9,2 C 8,3 C 96 % 1007,5 hPa 0,0 l/m 0 min 0 min 54 W/m 16,7 km/h (3 Bft)
11.11.2014 09:12 9,2 C 8,3 C 96 % 1007,4 hPa 0,0 l/m 0 min 0 min 53 W/m 23,0 km/h (4 Bft)
11.11.2014 09:14 9,2 C 8,3 C 96 % 1007,5 hPa 0,0 l/m 0 min 0 min 53 W/m 25,1 km/h (4 Bft)
11.11.2014 09:16 9,2 C 8,3 C 96 % 1007,5 hPa 0,0 l/m 0 min 0 min 52 W/m 16,7 km/h (3 Bft)
11.11.2014 09:18 9,2 C 8,3 C 96 % 1007,5 hPa 0,0 l/m 0 min 0 min 51 W/m 23,0 km/h (4 Bft)
11.11.2014 09:20 9,2 C 8,3 C 96 % 1007,5 hPa 0,0 l/m 0 min 0 min 53 W/m 23,0 km/h (4 Bft)
11.11.2014 09:22 9,2 C 8,3 C 96 % 1007,4 hPa 0,0 l/m 0 min 0 min 55 W/m 16,7 km/h (3 Bft)
11.11.2014 09:24 9,2 C 8,3 C 96 % 1007,4 hPa 0,0 l/m 0 min 0 min 51 W/m 16,7 km/h (3 Bft)
11.11.2014 09:26 9,3 C 8,3 C 95 % 1007,2 hPa 0,0 l/m 0 min 0 min 48 W/m 20,9 km/h (4 Bft)
11.11.2014 09:28 9,3 C 8,3 C 95 % 1007,2 hPa 0,0 l/m 0 min 0 min 50 W/m 20,9 km/h (4 Bft)
11.11.2014 09:30 9,3 C 8,3 C 95 % 1007,2 hPa 0,0 l/m 0 min 0 min 54 W/m 25,1 km/h (4 Bft)
11.11.2014 09:32 9,3 C 8,3 C 95 % 1007,2 hPa 0,0 l/m 0 min 0 min 54 W/m 27,2 km/h (4 Bft)
11.11.2014 09:34 9,3 C 8,9 C 95 % 1007,1 hPa 0,0 l/m 0 min 0 min 54 W/m 23,0 km/h (4 Bft)
11.11.2014 09:36 9,3 C 8,9 C 95 % 1007,2 hPa 0,0 l/m 0 min 0 min 57 W/m 27,2 km/h (4 Bft)
11.11.2014 09:38 9,4 C 8,9 C 95 % 1007,1 hPa 0,0 l/m 0 min 0 min 65 W/m 20,9 km/h (4 Bft)
11.11.2014 09:40 9,4 C 8,9 C 95 % 1007,1 hPa 0,0 l/m 0 min 0 min 71 W/m 27,2 km/h (4 Bft)
11.11.2014 09:42 9,4 C 8,9 C 95 % 1007,1 hPa 0,0 l/m 0 min 0 min 73 W/m 23,0 km/h (4 Bft)
11.11.2014 09:44 9,4 C 8,9 C 95 % 1007,1 hPa 0,0 l/m 0 min 0 min 72 W/m 33,5 km/h (5 Bft)
11.11.2014 09:46 9,4 C 8,9 C 95 % 1007,1 hPa 0,0 l/m 0 min 0 min 70 W/m 31,4 km/h (5 Bft)
11.11.2014 09:48 9,5 C 8,9 C 95 % 1007,1 hPa 0,0 l/m 0 min 0 min 66 W/m 23,0 km/h (4 Bft)
11.11.2014 09:50 9,5 C 8,9 C 94 % 1007,0 hPa 0,0 l/m 0 min 0 min 62 W/m 25,1 km/h (4 Bft)
11.11.2014 09:52 9,5 C 8,9 C 94 % 1006,9 hPa 0,0 l/m 0 min 0 min 62 W/m 23,0 km/h (4 Bft)
11.11.2014 09:54 9,6 C 8,9 C 94 % 1007,0 hPa 0,0 l/m 0 min 0 min 62 W/m 20,9 km/h (4 Bft)
11.11.2014 09:56 9,6 C 8,9 C 94 % 1007,1 hPa 0,0 l/m 0 min 0 min 63 W/m 25,1 km/h (4 Bft)
11.11.2014 09:58 9,6 C 8,9 C 94 % 1007,0 hPa 0,0 l/m 0 min 0 min 68 W/m 25,1 km/h (4 Bft)
11.11.2014 10:00 9,6 C 8,9 C 94 % 1007,0 hPa 0,0 l/m 0 min 0 min 77 W/m 29,3 km/h (5 Bft)
11.11.2014 10:02 9,6 C 8,9 C 94 % 1006,9 hPa 0,0 l/m 0 min 0 min 88 W/m 23,0 km/h (4 Bft)
11.11.2014 10:04 9,6 C 8,9 C 94 % 1006,8 hPa 0,0 l/m 0 min 0 min 99 W/m 14,6 km/h (3 Bft)
11.11.2014 10:06 9,6 C 8,9 C 94 % 1006,9 hPa 0,0 l/m 0 min 0 min 98 W/m 20,9 km/h (4 Bft)
11.11.2014 10:08 9,6 C 8,9 C 93 % 1006,9 hPa 0,0 l/m 0 min 0 min 89 W/m 33,5 km/h (5 Bft)
11.11.2014 10:10 9,6 C 8,9 C 93 % 1006,9 hPa 0,0 l/m 0 min 0 min 83 W/m 31,4 km/h (5 Bft)
11.11.2014 10:12 9,7 C 8,9 C 93 % 1006,9 hPa 0,0 l/m 0 min 0 min 79 W/m 27,2 km/h (4 Bft)
11.11.2014 10:14 9,7 C 8,9 C 93 % 1006,9 hPa 0,0 l/m 0 min 0 min 77 W/m 23,0 km/h (4 Bft)
11.11.2014 10:16 9,7 C 8,9 C 93 % 1006,9 hPa 0,0 l/m 0 min 0 min 75 W/m 20,9 km/h (4 Bft)
11.11.2014 10:18 9,7 C 8,9 C 93 % 1006,9 hPa 0,0 l/m 0 min 0 min 74 W/m 18,8 km/h (3 Bft)
11.11.2014 10:20 9,7 C 8,9 C 93 % 1006,9 hPa 0,0 l/m 0 min 0 min 73 W/m 25,1 km/h (4 Bft)
11.11.2014 10:22 9,7 C 8,9 C 93 % 1006,9 hPa 0,0 l/m 0 min 0 min 69 W/m 27,2 km/h (4 Bft)
11.11.2014 10:24 9,7 C 8,9 C 92 % 1006,9 hPa 0,0 l/m 0 min 0 min 65 W/m 25,1 km/h (4 Bft)
11.11.2014 10:26 9,7 C 8,9 C 92 % 1006,9 hPa 0,0 l/m 0 min 0 min 59 W/m 35,6 km/h (5 Bft)
11.11.2014 10:28 9,7 C 8,9 C 92 % 1006,8 hPa 0,0 l/m 0 min 0 min 58 W/m 27,2 km/h (4 Bft)
11.11.2014 10:30 9,7 C 8,9 C 92 % 1006,9 hPa 0,0 l/m 0 min 0 min 62 W/m 27,2 km/h (4 Bft)
11.11.2014 10:32 9,7 C 8,9 C 92 % 1006,8 hPa 0,0 l/m 0 min 0 min 61 W/m 27,2 km/h (4 Bft)
11.11.2014 10:34 9,8 C 8,9 C 92 % 1006,8 hPa 0,0 l/m 0 min 0 min 53 W/m 16,7 km/h (3 Bft)
11.11.2014 10:36 9,8 C 8,9 C 92 % 1006,8 hPa 0,0 l/m 0 min 0 min 48 W/m 27,2 km/h (4 Bft)
11.11.2014 10:38 9,8 C 8,9 C 92 % 1006,9 hPa 0,0 l/m 0 min 0 min 47 W/m 25,1 km/h (4 Bft)
11.11.2014 10:40 9,8 C 8,9 C 91 % 1006,8 hPa 0,0 l/m 0 min 0 min 49 W/m 20,9 km/h (4 Bft)
11.11.2014 10:42 9,8 C 8,9 C 91 % 1006,8 hPa 0,0 l/m 0 min 0 min 48 W/m 16,7 km/h (3 Bft)
11.11.2014 10:44 9,8 C 8,9 C 91 % 1006,8 hPa 0,0 l/m 0 min 0 min 40 W/m 20,9 km/h (4 Bft)
11.11.2014 10:46 9,8 C 8,9 C 91 % 1006,6 hPa 0,0 l/m 0 min 0 min 37 W/m 16,7 km/h (3 Bft)
11.11.2014 10:48 9,8 C 8,9 C 91 % 1006,6 hPa 0,0 l/m 0 min 0 min 37 W/m 23,0 km/h (4 Bft)
11.11.2014 10:50 9,8 C 8,9 C 91 % 1006,5 hPa 0,0 l/m 0 min 0 min 49 W/m 20,9 km/h (4 Bft)
11.11.2014 10:52 9,8 C 8,9 C 91 % 1006,7 hPa 0,0 l/m 0 min 0 min 61 W/m 25,1 km/h (4 Bft)
11.11.2014 10:54 9,9 C 8,9 C 91 % 1006,7 hPa 0,0 l/m 0 min 0 min 62 W/m 27,2 km/h (4 Bft)
11.11.2014 10:56 9,9 C 8,9 C 91 % 1006,8 hPa 0,0 l/m 0 min 0 min 64 W/m 25,1 km/h (4 Bft)
11.11.2014 10:58 9,9 C 8,9 C 91 % 1006,6 hPa 0,0 l/m 0 min 0 min 64 W/m 25,1 km/h (4 Bft)
11.11.2014 11:00 9,9 C 8,9 C 91 % 1006,5 hPa 0,0 l/m 0 min 0 min 59 W/m 25,1 km/h (4 Bft)
11.11.2014 11:02 9,9 C 8,9 C 91 % 1006,6 hPa 0,0 l/m 0 min 0 min 49 W/m 29,3 km/h (5 Bft)
11.11.2014 11:04 9,9 C 8,9 C 91 % 1006,4 hPa 0,0 l/m 0 min 2 min 43 W/m 16,7 km/h (3 Bft)
11.11.2014 11:06 9,9 C 8,9 C 91 % 1006,4 hPa 0,0 l/m 0 min 2 min 43 W/m 27,2 km/h (4 Bft)
11.11.2014 11:08 9,9 C 8,3 C 91 % 1006,3 hPa 0,0 l/m 0 min 2 min 50 W/m 27,2 km/h (4 Bft)
11.11.2014 11:10 10,0 C 8,3 C 91 % 1006,4 hPa 0,0 l/m 0 min 2 min 58 W/m 29,3 km/h (5 Bft)
11.11.2014 11:12 10,0 C 8,3 C 91 % 1006,3 hPa 0,0 l/m 0 min 2 min 63 W/m 18,8 km/h (3 Bft)
11.11.2014 11:14 10,0 C 8,3 C 91 % 1006,3 hPa 0,0 l/m 0 min 0 min 67 W/m 14,6 km/h (3 Bft)
11.11.2014 11:16 10,1 C 8,3 C 91 % 1006,4 hPa 0,0 l/m 0 min 0 min 62 W/m 23,0 km/h (4 Bft)
11.11.2014 11:18 10,1 C 8,3 C 91 % 1006,3 hPa 0,0 l/m 0 min 0 min 55 W/m 20,9 km/h (4 Bft)
11.11.2014 11:20 10,1 C 8,3 C 91 % 1006,2 hPa 0,0 l/m 0 min 0 min 54 W/m 20,9 km/h (4 Bft)
11.11.2014 11:22 10,0 C 8,3 C 91 % 1006,2 hPa 0,0 l/m 0 min 2 min 58 W/m 23,0 km/h (4 Bft)
11.11.2014 11:24 10,0 C 8,3 C 91 % 1006,2 hPa 0,0 l/m 0 min 2 min 63 W/m 20,9 km/h (4 Bft)
11.11.2014 11:26 10,0 C 8,3 C 91 % 1006,1 hPa 0,0 l/m 0 min 2 min 70 W/m 18,8 km/h (3 Bft)
11.11.2014 11:28 10,0 C 8,3 C 91 % 1006,0 hPa 0,2 l/m 0 min 2 min 72 W/m 20,9 km/h (4 Bft)
11.11.2014 11:30 10,1 C 8,3 C 91 % 1006,0 hPa 0,0 l/m 0 min 2 min 71 W/m 18,8 km/h (3 Bft)
11.11.2014 11:32 10,1 C 8,3 C 91 % 1006,0 hPa 0,0 l/m 0 min 2 min 61 W/m 25,1 km/h (4 Bft)
11.11.2014 11:34 10,1 C 8,3 C 91 % 1005,9 hPa 0,0 l/m 0 min 2 min 53 W/m 23,0 km/h (4 Bft)
11.11.2014 11:36 10,1 C 8,3 C 91 % 1005,8 hPa 0,0 l/m 0 min 2 min 56 W/m 20,9 km/h (4 Bft)
11.11.2014 11:38 10,0 C 8,3 C 91 % 1005,8 hPa 0,0 l/m 0 min 2 min 69 W/m 23,0 km/h (4 Bft)
11.11.2014 11:40 10,1 C 8,3 C 92 % 1005,8 hPa 0,0 l/m 0 min 2 min 78 W/m 14,6 km/h (3 Bft)
11.11.2014 11:42 10,1 C 8,3 C 92 % 1005,9 hPa 0,0 l/m 0 min 2 min 74 W/m 23,0 km/h (4 Bft)
11.11.2014 11:44 10,1 C 8,3 C 92 % 1005,9 hPa 0,0 l/m 0 min 0 min 63 W/m 23,0 km/h (4 Bft)
11.11.2014 11:46 10,1 C 8,3 C 92 % 1005,9 hPa 0,0 l/m 0 min 0 min 53 W/m 33,5 km/h (5 Bft)
11.11.2014 11:48 10,0 C 8,3 C 92 % 1005,8 hPa 0,0 l/m 0 min 0 min 47 W/m 29,3 km/h (5 Bft)
11.11.2014 11:50 10,0 C 8,3 C 92 % 1005,8 hPa 0,0 l/m 0 min 2 min 47 W/m 20,9 km/h (4 Bft)
11.11.2014 11:52 10,0 C 8,3 C 92 % 1005,7 hPa 0,0 l/m 0 min 2 min 47 W/m 29,3 km/h (5 Bft)
11.11.2014 11:54 10,0 C 8,3 C 92 % 1005,6 hPa 0,0 l/m 0 min 2 min 46 W/m 25,1 km/h (4 Bft)
11.11.2014 11:56 10,0 C 8,3 C 92 % 1005,6 hPa 0,0 l/m 0 min 2 min 46 W/m 33,5 km/h (5 Bft)
11.11.2014 11:58 10,0 C 8,3 C 92 % 1005,6 hPa 0,2 l/m 0 min 2 min 50 W/m 27,2 km/h (4 Bft)
11.11.2014 12:00 10,0 C 8,3 C 92 % 1005,6 hPa 0,0 l/m 0 min 2 min 53 W/m 20,9 km/h (4 Bft)
11.11.2014 12:02 10,0 C 8,3 C 92 % 1005,6 hPa 0,0 l/m 0 min 2 min 52 W/m 31,4 km/h (5 Bft)
11.11.2014 12:06 9,9 C 8,3 C 93 % 1005,6 hPa 0,0 l/m 0 min 2 min 60 W/m 29,3 km/h (5 Bft)
11.11.2014 12:08 9,9 C 8,3 C 93 % 1005,5 hPa 0,0 l/m 0 min 0 min 50 W/m 25,1 km/h (4 Bft)
11.11.2014 12:10 9,9 C 8,3 C 93 % 1005,5 hPa 0,2 l/m 0 min 2 min 41 W/m 27,2 km/h (4 Bft)
11.11.2014 12:12 9,9 C 8,3 C 93 % 1005,5 hPa 0,0 l/m 0 min 2 min 40 W/m 27,2 km/h (4 Bft)
11.11.2014 12:14 9,9 C 7,8 C 93 % 1005,4 hPa 0,0 l/m 0 min 2 min 39 W/m 31,4 km/h (5 Bft)
11.11.2014 12:16 9,9 C 7,8 C 93 % 1005,4 hPa 0,0 l/m 0 min 2 min 42 W/m 35,6 km/h (5 Bft)
11.11.2014 12:18 9,9 C 8,3 C 93 % 1005,4 hPa 0,2 l/m 0 min 2 min 42 W/m 29,3 km/h (5 Bft)
11.11.2014 12:20 9,9 C 8,3 C 93 % 1005,3 hPa 0,0 l/m 0 min 2 min 36 W/m 31,4 km/h (5 Bft)
11.11.2014 12:22 9,9 C 7,8 C 93 % 1005,3 hPa 0,0 l/m 0 min 2 min 31 W/m 37,7 km/h (5 Bft)
11.11.2014 12:24 9,9 C 8,3 C 93 % 1005,4 hPa 0,2 l/m 0 min 2 min 34 W/m 23,0 km/h (4 Bft)
11.11.2014 12:26 9,9 C 8,3 C 94 % 1005,2 hPa 0,0 l/m 0 min 2 min 35 W/m 25,1 km/h (4 Bft)
11.11.2014 12:28 9,9 C 8,3 C 94 % 1005,2 hPa 0,0 l/m 0 min 2 min 35 W/m 35,6 km/h (5 Bft)
11.11.2014 12:30 9,8 C 8,3 C 94 % 1005,1 hPa 0,2 l/m 0 min 2 min 33 W/m 29,3 km/h (5 Bft)
11.11.2014 12:32 9,8 C 8,3 C 94 % 1005,2 hPa 0,0 l/m 0 min 2 min 39 W/m 25,1 km/h (4 Bft)
11.11.2014 12:34 9,8 C 8,3 C 94 % 1005,2 hPa 0,0 l/m 0 min 2 min 44 W/m 29,3 km/h (5 Bft)
11.11.2014 12:36 9,8 C 8,3 C 94 % 1005,3 hPa 0,2 l/m 0 min 2 min 41 W/m 25,1 km/h (4 Bft)
11.11.2014 12:38 9,8 C 8,3 C 94 % 1005,4 hPa 0,0 l/m 0 min 2 min 38 W/m 23,0 km/h (4 Bft)
11.11.2014 12:40 9,8 C 8,3 C 94 % 1005,4 hPa 0,0 l/m 0 min 2 min 39 W/m 23,0 km/h (4 Bft)
11.11.2014 12:42 9,8 C 8,3 C 94 % 1005,4 hPa 0,0 l/m 0 min 2 min 46 W/m 29,3 km/h (5 Bft)
11.11.2014 12:44 9,8 C 8,3 C 94 % 1005,3 hPa 0,0 l/m 0 min 2 min 57 W/m 27,2 km/h (4 Bft)
11.11.2014 12:46 9,8 C 8,3 C 94 % 1005,3 hPa 0,2 l/m 0 min 2 min 52 W/m 29,3 km/h (5 Bft)
11.11.2014 12:48 9,8 C 8,3 C 94 % 1005,4 hPa 0,0 l/m 0 min 2 min 49 W/m 35,6 km/h (5 Bft)
11.11.2014 12:50 9,8 C 8,3 C 94 % 1005,2 hPa 0,0 l/m 0 min 2 min 52 W/m 29,3 km/h (5 Bft)
11.11.2014 12:52 9,8 C 8,3 C 94 % 1005,2 hPa 0,0 l/m 0 min 2 min 48 W/m 25,1 km/h (4 Bft)
11.11.2014 12:54 9,8 C 8,3 C 95 % 1005,2 hPa 0,0 l/m 0 min 2 min 47 W/m 25,1 km/h (4 Bft)
11.11.2014 12:56 9,8 C 8,3 C 95 % 1005,2 hPa 0,0 l/m 0 min 2 min 47 W/m 27,2 km/h (4 Bft)
11.11.2014 12:58 9,9 C 8,3 C 95 % 1005,0 hPa 0,0 l/m 0 min 0 min 41 W/m 31,4 km/h (5 Bft)
11.11.2014 13:00 9,9 C 8,3 C 95 % 1005,0 hPa 0,0 l/m 0 min 2 min 34 W/m 25,1 km/h (4 Bft)
11.11.2014 13:02 9,9 C 8,3 C 95 % 1005,1 hPa 0,0 l/m 0 min 0 min 38 W/m 33,5 km/h (5 Bft)
11.11.2014 13:04 9,9 C 8,3 C 95 % 1005,0 hPa 0,0 l/m 0 min 2 min 39 W/m 23,0 km/h (4 Bft)
11.11.2014 13:06 9,9 C 8,3 C 95 % 1005,0 hPa 0,0 l/m 0 min 2 min 35 W/m 31,4 km/h (5 Bft)
11.11.2014 13:08 9,9 C 8,3 C 95 % 1004,8 hPa 0,2 l/m 0 min 2 min 34 W/m 35,6 km/h (5 Bft)
11.11.2014 13:10 9,9 C 8,3 C 95 % 1004,8 hPa 0,0 l/m 0 min 2 min 37 W/m 35,6 km/h (5 Bft)
11.11.2014 13:12 9,9 C 8,3 C 95 % 1004,8 hPa 0,0 l/m 0 min 0 min 46 W/m 23,0 km/h (4 Bft)
11.11.2014 13:14 9,9 C 8,3 C 95 % 1004,8 hPa 0,0 l/m 0 min 0 min 51 W/m 39,7 km/h (6 Bft)
11.11.2014 13:16 9,9 C 8,3 C 95 % 1004,9 hPa 0,0 l/m 0 min 2 min 55 W/m 25,1 km/h (4 Bft)
11.11.2014 13:18 9,9 C 8,9 C 95 % 1004,8 hPa 0,0 l/m 0 min 2 min 67 W/m 27,2 km/h (4 Bft)
11.11.2014 13:20 9,9 C 8,9 C 95 % 1004,7 hPa 0,0 l/m 0 min 0 min 71 W/m 23,0 km/h (4 Bft)
11.11.2014 13:22 10,0 C 8,9 C 95 % 1004,8 hPa 0,0 l/m 0 min 2 min 64 W/m 18,8 km/h (3 Bft)
11.11.2014 13:24 10,0 C 8,9 C 95 % 1004,7 hPa 0,0 l/m 0 min 0 min 52 W/m 23,0 km/h (4 Bft)
11.11.2014 13:26 10,0 C 8,9 C 95 % 1004,6 hPa 0,0 l/m 0 min 0 min 46 W/m 16,7 km/h (3 Bft)
11.11.2014 13:28 10,1 C 8,9 C 95 % 1004,6 hPa 0,0 l/m 0 min 0 min 46 W/m 18,8 km/h (3 Bft)
11.11.2014 13:30 10,1 C 8,9 C 95 % 1004,6 hPa 0,0 l/m 0 min 0 min 47 W/m 18,8 km/h (3 Bft)
11.11.2014 13:32 10,1 C 8,9 C 95 % 1004,6 hPa 0,0 l/m 0 min 0 min 48 W/m 20,9 km/h (4 Bft)
11.11.2014 13:34 10,1 C 8,9 C 96 % 1004,6 hPa 0,0 l/m 0 min 0 min 49 W/m 18,8 km/h (3 Bft)
11.11.2014 13:36 10,1 C 8,9 C 96 % 1004,7 hPa 0,0 l/m 0 min 0 min 45 W/m 14,6 km/h (3 Bft)
11.11.2014 13:38 10,1 C 8,9 C 95 % 1004,7 hPa 0,0 l/m 0 min 0 min 41 W/m 20,9 km/h (4 Bft)
11.11.2014 13:40 10,1 C 8,9 C 95 % 1004,7 hPa 0,0 l/m 0 min 0 min 35 W/m 18,8 km/h (3 Bft)
11.11.2014 13:42 10,2 C 8,9 C 96 % 1004,7 hPa 0,0 l/m 0 min 0 min 30 W/m 14,6 km/h (3 Bft)
11.11.2014 13:44 10,2 C 8,9 C 96 % 1004,6 hPa 0,0 l/m 0 min 0 min 30 W/m 16,7 km/h (3 Bft)
11.11.2014 13:46 10,2 C 8,9 C 96 % 1004,7 hPa 0,0 l/m 0 min 0 min 30 W/m 18,8 km/h (3 Bft)
11.11.2014 13:48 10,2 C 8,9 C 96 % 1004,6 hPa 0,0 l/m 0 min 0 min 28 W/m 16,7 km/h (3 Bft)
11.11.2014 13:50 10,2 C 8,9 C 96 % 1004,6 hPa 0,0 l/m 0 min 0 min 28 W/m 18,8 km/h (3 Bft)
11.11.2014 13:52 10,2 C 8,9 C 96 % 1004,6 hPa 0,0 l/m 0 min 2 min 31 W/m 20,9 km/h (4 Bft)
11.11.2014 13:54 10,2 C 8,9 C 96 % 1004,6 hPa 0,0 l/m 0 min 2 min 37 W/m 25,1 km/h (4 Bft)
11.11.2014 13:56 10,2 C 8,9 C 96 % 1004,6 hPa 0,0 l/m 0 min 2 min 45 W/m 10,5 km/h (2 Bft)
11.11.2014 13:58 10,2 C 8,9 C 96 % 1004,4 hPa 0,0 l/m 0 min 2 min 47 W/m 20,9 km/h (4 Bft)
11.11.2014 14:00 10,2 C 8,9 C 96 % 1004,6 hPa 0,0 l/m 0 min 2 min 52 W/m 16,7 km/h (3 Bft)
11.11.2014 14:02 10,2 C 8,9 C 96 % 1004,5 hPa 0,0 l/m 0 min 2 min 57 W/m 18,8 km/h (3 Bft)
11.11.2014 14:04 10,2 C 8,9 C 96 % 1004,5 hPa 0,0 l/m 0 min 2 min 53 W/m 18,8 km/h (3 Bft)
11.11.2014 14:06 10,2 C 8,9 C 96 % 1004,3 hPa 0,0 l/m 0 min 0 min 47 W/m 18,8 km/h (3 Bft)
11.11.2014 14:08 10,3 C 8,9 C 96 % 1004,4 hPa 0,0 l/m 0 min 2 min 39 W/m 20,9 km/h (4 Bft)
11.11.2014 14:10 10,3 C 8,9 C 96 % 1004,2 hPa 0,0 l/m 0 min 0 min 38 W/m 14,6 km/h (3 Bft)
11.11.2014 14:12 10,3 C 8,9 C 96 % 1004,2 hPa 0,2 l/m 0 min 2 min 46 W/m 16,7 km/h (3 Bft)
11.11.2014 14:14 10,3 C 8,9 C 96 % 1004,2 hPa 0,0 l/m 0 min 2 min 52 W/m 16,7 km/h (3 Bft)
11.11.2014 14:16 10,3 C 8,9 C 96 % 1004,1 hPa 0,0 l/m 0 min 2 min 53 W/m 18,8 km/h (3 Bft)
11.11.2014 14:18 10,3 C 8,9 C 96 % 1004,2 hPa 0,0 l/m 0 min 0 min 44 W/m 18,8 km/h (3 Bft)
11.11.2014 14:20 10,3 C 8,9 C 96 % 1004,2 hPa 0,0 l/m 0 min 0 min 37 W/m 29,3 km/h (5 Bft)
11.11.2014 14:22 10,3 C 8,9 C 96 % 1004,2 hPa 0,0 l/m 0 min 0 min 38 W/m 20,9 km/h (4 Bft)
11.11.2014 14:24 10,3 C 8,9 C 96 % 1004,2 hPa 0,0 l/m 0 min 0 min 42 W/m 27,2 km/h (4 Bft)
11.11.2014 14:26 10,3 C 8,9 C 96 % 1004,2 hPa 0,0 l/m 0 min 2 min 46 W/m 27,2 km/h (4 Bft)
11.11.2014 14:28 10,4 C 8,9 C 96 % 1004,1 hPa 0,0 l/m 0 min 0 min 39 W/m 25,1 km/h (4 Bft)
11.11.2014 14:30 10,4 C 8,9 C 96 % 1004,0 hPa 0,0 l/m 0 min 0 min 33 W/m 27,2 km/h (4 Bft)
11.11.2014 14:32 10,4 C 8,9 C 96 % 1004,0 hPa 0,0 l/m 0 min 0 min 36 W/m 23,0 km/h (4 Bft)
11.11.2014 14:34 10,4 C 8,9 C 96 % 1004,0 hPa 0,0 l/m 0 min 0 min 43 W/m 18,8 km/h (3 Bft)
11.11.2014 14:36 10,4 C 8,9 C 96 % 1004,0 hPa 0,0 l/m 0 min 0 min 46 W/m 23,0 km/h (4 Bft)
11.11.2014 14:38 10,4 C 8,9 C 96 % 1003,9 hPa 0,0 l/m 0 min 0 min 46 W/m 18,8 km/h (3 Bft)
11.11.2014 14:40 10,4 C 8,9 C 96 % 1003,9 hPa 0,0 l/m 0 min 0 min 40 W/m 18,8 km/h (3 Bft)
11.11.2014 14:42 10,4 C 8,9 C 96 % 1003,9 hPa 0,0 l/m 0 min 0 min 35 W/m 18,8 km/h (3 Bft)
11.11.2014 14:44 10,5 C 8,9 C 96 % 1004,0 hPa 0,0 l/m 0 min 0 min 39 W/m 18,8 km/h (3 Bft)
11.11.2014 14:46 10,5 C 8,9 C 96 % 1004,0 hPa 0,0 l/m 0 min 0 min 47 W/m 18,8 km/h (3 Bft)
11.11.2014 14:48 10,5 C 8,9 C 96 % 1004,0 hPa 0,0 l/m 0 min 0 min 52 W/m 23,0 km/h (4 Bft)
11.11.2014 14:50 10,5 C 8,9 C 96 % 1004,0 hPa 0,0 l/m 0 min 0 min 62 W/m 20,9 km/h (4 Bft)
11.11.2014 14:52 10,6 C 9,4 C 96 % 1004,0 hPa 0,0 l/m 0 min 0 min 82 W/m 16,7 km/h (3 Bft)
11.11.2014 14:54 10,6 C 9,4 C 96 % 1004,0 hPa 0,0 l/m 0 min 0 min 76 W/m 20,9 km/h (4 Bft)
11.11.2014 14:56 10,6 C 9,4 C 96 % 1003,9 hPa 0,0 l/m 0 min 0 min 72 W/m 18,8 km/h (3 Bft)
11.11.2014 14:58 10,6 C 9,4 C 96 % 1003,9 hPa 0,0 l/m 0 min 0 min 65 W/m 25,1 km/h (4 Bft)
11.11.2014 15:00 10,7 C 9,4 C 96 % 1003,9 hPa 0,0 l/m 0 min 0 min 64 W/m 20,9 km/h (4 Bft)
11.11.2014 15:02 10,7 C 9,4 C 96 % 1003,9 hPa 0,0 l/m 0 min 2 min 68 W/m 16,7 km/h (3 Bft)
11.11.2014 15:04 10,7 C 9,4 C 96 % 1003,9 hPa 0,0 l/m 0 min 0 min 74 W/m 14,6 km/h (3 Bft)
11.11.2014 15:06 10,8 C 9,4 C 96 % 1003,9 hPa 0,0 l/m 0 min 2 min 76 W/m 16,7 km/h (3 Bft)
11.11.2014 15:08 10,8 C 9,4 C 96 % 1003,9 hPa 0,0 l/m 0 min 0 min 79 W/m 18,8 km/h (3 Bft)
11.11.2014 15:10 10,8 C 9,4 C 96 % 1003,9 hPa 0,0 l/m 0 min 0 min 80 W/m 18,8 km/h (3 Bft)
11.11.2014 15:12 10,8 C 9,4 C 96 % 1003,9 hPa 0,0 l/m 0 min 0 min 77 W/m 12,6 km/h (3 Bft)
11.11.2014 15:14 10,9 C 9,4 C 96 % 1004,0 hPa 0,0 l/m 0 min 0 min 84 W/m 16,7 km/h (3 Bft)
11.11.2014 15:16 10,9 C 9,4 C 96 % 1004,0 hPa 0,0 l/m 0 min 0 min 84 W/m 18,8 km/h (3 Bft)
11.11.2014 15:18 10,9 C 10,0 C 96 % 1004,0 hPa 0,0 l/m 0 min 0 min 79 W/m 23,0 km/h (4 Bft)
11.11.2014 15:20 11,0 C 10,0 C 96 % 1004,0 hPa 0,0 l/m 0 min 0 min 67 W/m 25,1 km/h (4 Bft)
11.11.2014 15:22 11,0 C 9,4 C 96 % 1003,9 hPa 0,0 l/m 0 min 0 min 56 W/m 20,9 km/h (4 Bft)
11.11.2014 15:24 11,0 C 9,4 C 96 % 1003,9 hPa 0,0 l/m 0 min 0 min 51 W/m 16,7 km/h (3 Bft)
11.11.2014 15:26 11,1 C 9,4 C 96 % 1003,9 hPa 0,0 l/m 0 min 0 min 50 W/m 10,5 km/h (2 Bft)
11.11.2014 15:28 11,1 C 9,4 C 95 % 1003,9 hPa 0,0 l/m 0 min 0 min 49 W/m 14,6 km/h (3 Bft)
11.11.2014 15:30 11,1 C 9,4 C 95 % 1003,9 hPa 0,0 l/m 0 min 0 min 49 W/m 14,6 km/h (3 Bft)
11.11.2014 15:32 11,1 C 9,4 C 95 % 1003,9 hPa 0,0 l/m 0 min 0 min 47 W/m 20,9 km/h (4 Bft)
11.11.2014 15:34 11,1 C 9,4 C 95 % 1003,9 hPa 0,0 l/m 0 min 0 min 41 W/m 16,7 km/h (3 Bft)
11.11.2014 15:36 11,1 C 9,4 C 95 % 1003,9 hPa 0,0 l/m 0 min 0 min 35 W/m 16,7 km/h (3 Bft)
11.11.2014 15:38 11,1 C 9,4 C 95 % 1003,9 hPa 0,0 l/m 0 min 0 min 35 W/m 14,6 km/h (3 Bft)
11.11.2014 15:40 11,1 C 9,4 C 95 % 1003,8 hPa 0,0 l/m 0 min 0 min 33 W/m 12,6 km/h (3 Bft)
11.11.2014 15:42 11,2 C 9,4 C 95 % 1003,9 hPa 0,0 l/m 0 min 0 min 28 W/m 14,6 km/h (3 Bft)
11.11.2014 15:44 11,2 C 9,4 C 95 % 1003,8 hPa 0,0 l/m 0 min 0 min 24 W/m 14,6 km/h (3 Bft)
11.11.2014 15:46 11,2 C 9,4 C 95 % 1003,8 hPa 0,0 l/m 0 min 0 min 21 W/m 16,7 km/h (3 Bft)
11.11.2014 15:48 11,2 C 9,4 C 95 % 1003,8 hPa 0,0 l/m 0 min 0 min 23 W/m 14,6 km/h (3 Bft)
11.11.2014 15:50 11,2 C 9,4 C 95 % 1003,8 hPa 0,0 l/m 0 min 0 min 23 W/m 16,7 km/h (3 Bft)
11.11.2014 15:52 11,2 C 9,4 C 95 % 1003,8 hPa 0,0 l/m 0 min 0 min 19 W/m 12,6 km/h (3 Bft)
11.11.2014 15:54 11,2 C 9,4 C 95 % 1003,8 hPa 0,0 l/m 0 min 0 min 15 W/m 14,6 km/h (3 Bft)
11.11.2014 15:56 11,2 C 9,4 C 95 % 1003,8 hPa 0,0 l/m 0 min 0 min 14 W/m 16,7 km/h (3 Bft)
11.11.2014 15:58 11,2 C 9,4 C 95 % 1003,8 hPa 0,0 l/m 0 min 0 min 17 W/m 23,0 km/h (4 Bft)
11.11.2014 16:00 11,2 C 9,4 C 95 % 1003,7 hPa 0,0 l/m 0 min 0 min 20 W/m 12,6 km/h (3 Bft)
11.11.2014 16:02 11,2 C 9,4 C 95 % 1003,8 hPa 0,0 l/m 0 min 0 min 25 W/m 14,6 km/h (3 Bft)
11.11.2014 16:04 11,2 C 9,4 C 94 % 1003,8 hPa 0,0 l/m 0 min 0 min 26 W/m 16,7 km/h (3 Bft)
11.11.2014 16:06 11,2 C 9,4 C 94 % 1003,8 hPa 0,0 l/m 0 min 0 min 26 W/m 10,5 km/h (2 Bft)
11.11.2014 16:08 11,2 C 9,4 C 94 % 1003,8 hPa 0,0 l/m 0 min 0 min 26 W/m 18,8 km/h (3 Bft)
11.11.2014 16:10 11,3 C 9,4 C 94 % 1003,8 hPa 0,0 l/m 0 min 0 min 25 W/m 14,6 km/h (3 Bft)
11.11.2014 16:12 11,3 C 9,4 C 94 % 1003,7 hPa 0,0 l/m 0 min 0 min 21 W/m 16,7 km/h (3 Bft)
11.11.2014 16:14 11,3 C 9,4 C 94 % 1003,7 hPa 0,0 l/m 0 min 0 min 19 W/m 12,6 km/h (3 Bft)
11.11.2014 16:16 11,3 C 9,4 C 94 % 1003,7 hPa 0,0 l/m 0 min 0 min 19 W/m 14,6 km/h (3 Bft)
11.11.2014 16:18 11,3 C 9,4 C 94 % 1003,7 hPa 0,0 l/m 0 min 0 min 18 W/m 10,5 km/h (2 Bft)
11.11.2014 16:20 11,3 C 9,4 C 94 % 1003,7 hPa 0,0 l/m 0 min 0 min 16 W/m 14,6 km/h (3 Bft)
11.11.2014 16:22 11,3 C 9,4 C 94 % 1003,6 hPa 0,0 l/m 0 min 0 min 14 W/m 14,6 km/h (3 Bft)
11.11.2014 16:24 11,3 C 9,4 C 94 % 1003,7 hPa 0,0 l/m 0 min 0 min 14 W/m 8,4 km/h (2 Bft)
11.11.2014 16:26 11,3 C 9,4 C 94 % 1003,8 hPa 0,0 l/m 0 min 0 min 14 W/m 16,7 km/h (3 Bft)
11.11.2014 16:28 11,3 C 9,4 C 94 % 1003,7 hPa 0,0 l/m 0 min 0 min 13 W/m 16,7 km/h (3 Bft)
11.11.2014 16:30 11,3 C 9,4 C 94 % 1003,7 hPa 0,0 l/m 0 min 0 min 12 W/m 14,6 km/h (3 Bft)
11.11.2014 16:32 11,3 C 9,4 C 94 % 1003,6 hPa 0,0 l/m 0 min 0 min 11 W/m 12,6 km/h (3 Bft)
11.11.2014 16:34 11,3 C 9,4 C 94 % 1003,5 hPa 0,0 l/m 0 min 0 min 12 W/m 12,6 km/h (3 Bft)
11.11.2014 16:36 11,3 C 9,4 C 94 % 1003,5 hPa 0,0 l/m 0 min 0 min 11 W/m 14,6 km/h (3 Bft)
11.11.2014 16:38 11,3 C 9,4 C 94 % 1003,5 hPa 0,0 l/m 0 min 0 min 11 W/m 10,5 km/h (2 Bft)
11.11.2014 16:40 11,3 C 9,4 C 94 % 1003,4 hPa 0,0 l/m 0 min 0 min 9 W/m 12,6 km/h (3 Bft)
11.11.2014 16:42 11,3 C 9,4 C 94 % 1003,3 hPa 0,0 l/m 0 min 0 min 7 W/m 14,6 km/h (3 Bft)
11.11.2014 16:44 11,3 C 9,4 C 94 % 1003,3 hPa 0,0 l/m 0 min 0 min 7 W/m 14,6 km/h (3 Bft)
11.11.2014 16:46 11,3 C 9,4 C 93 % 1003,3 hPa 0,0 l/m 0 min 0 min 6 W/m 16,7 km/h (3 Bft)
11.11.2014 16:48 11,3 C 9,4 C 93 % 1003,4 hPa 0,0 l/m 0 min 0 min 5 W/m 10,5 km/h (2 Bft)
11.11.2014 16:50 11,3 C 9,4 C 93 % 1003,3 hPa 0,0 l/m 0 min 0 min 1 W/m 16,7 km/h (3 Bft)
11.11.2014 16:52 11,3 C 9,4 C 93 % 1003,4 hPa 0,0 l/m 0 min 0 min 0 W/m 14,6 km/h (3 Bft)
11.11.2014 16:54 11,3 C 9,4 C 93 % 1003,3 hPa 0,0 l/m 0 min 0 min 0 W/m 14,6 km/h (3 Bft)
11.11.2014 16:56 11,3 C 9,4 C 93 % 1003,3 hPa 0,0 l/m 0 min 0 min 0 W/m 14,6 km/h (3 Bft)
11.11.2014 16:58 11,3 C 9,4 C 93 % 1003,3 hPa 0,0 l/m 0 min 0 min 0 W/m 14,6 km/h (3 Bft)
11.11.2014 17:00 11,3 C 9,4 C 93 % 1003,4 hPa 0,0 l/m 0 min 0 min 0 W/m 14,6 km/h (3 Bft)
11.11.2014 17:02 11,3 C 9,4 C 93 % 1003,5 hPa 0,0 l/m 0 min 0 min 0 W/m 12,6 km/h (3 Bft)
11.11.2014 17:04 11,3 C 9,4 C 93 % 1003,5 hPa 0,0 l/m 0 min 0 min 0 W/m 14,6 km/h (3 Bft)
11.11.2014 17:06 11,3 C 9,4 C 93 % 1003,4 hPa 0,0 l/m 0 min 0 min 0 W/m 12,6 km/h (3 Bft)
11.11.2014 17:08 11,3 C 9,4 C 93 % 1003,5 hPa 0,0 l/m 0 min 0 min 0 W/m 10,5 km/h (2 Bft)
11.11.2014 17:10 11,3 C 9,4 C 93 % 1003,4 hPa 0,0 l/m 0 min 0 min 0 W/m 14,6 km/h (3 Bft)
11.11.2014 17:12 11,3 C 9,4 C 93 % 1003,4 hPa 0,0 l/m 0 min 0 min 0 W/m 12,6 km/h (3 Bft)
11.11.2014 17:14 11,3 C 9,4 C 93 % 1003,4 hPa 0,0 l/m 0 min 0 min 0 W/m 18,8 km/h (3 Bft)
11.11.2014 17:16 11,3 C 9,4 C 93 % 1003,4 hPa 0,0 l/m 0 min 0 min 0 W/m 12,6 km/h (3 Bft)
11.11.2014 17:18 11,3 C 9,4 C 93 % 1003,4 hPa 0,0 l/m 0 min 0 min 0 W/m 16,7 km/h (3 Bft)
11.11.2014 17:20 11,3 C 9,4 C 93 % 1003,3 hPa 0,0 l/m 0 min 0 min 0 W/m 14,6 km/h (3 Bft)
11.11.2014 17:22 11,3 C 9,4 C 93 % 1003,3 hPa 0,0 l/m 0 min 0 min 0 W/m 14,6 km/h (3 Bft)
11.11.2014 17:24 11,3 C 9,4 C 93 % 1003,3 hPa 0,0 l/m 0 min 0 min 0 W/m 18,8 km/h (3 Bft)
11.11.2014 17:26 11,3 C 9,4 C 93 % 1003,2 hPa 0,0 l/m 0 min 0 min 0 W/m 16,7 km/h (3 Bft)
11.11.2014 17:28 11,3 C 9,4 C 93 % 1003,2 hPa 0,0 l/m 0 min 0 min 0 W/m 18,8 km/h (3 Bft)
11.11.2014 17:30 11,3 C 9,4 C 93 % 1003,1 hPa 0,0 l/m 0 min 0 min 0 W/m 14,6 km/h (3 Bft)
11.11.2014 17:32 11,3 C 9,4 C 93 % 1003,2 hPa 0,0 l/m 0 min 0 min 0 W/m 16,7 km/h (3 Bft)
11.11.2014 17:34 11,3 C 9,4 C 93 % 1003,3 hPa 0,0 l/m 0 min 0 min 0 W/m 14,6 km/h (3 Bft)
11.11.2014 17:36 11,3 C 9,4 C 93 % 1003,4 hPa 0,0 l/m 0 min 0 min 0 W/m 10,5 km/h (2 Bft)
11.11.2014 17:38 11,3 C 9,4 C 93 % 1003,5 hPa 0,0 l/m 0 min 0 min 0 W/m 10,5 km/h (2 Bft)
11.11.2014 17:40 11,3 C 9,4 C 93 % 1003,6 hPa 0,0 l/m 0 min 0 min 0 W/m 12,6 km/h (3 Bft)
11.11.2014 17:42 11,3 C 9,4 C 93 % 1003,4 hPa 0,0 l/m 0 min 0 min 0 W/m 10,5 km/h (2 Bft)
11.11.2014 17:44 11,3 C 9,4 C 93 % 1003,4 hPa 0,0 l/m 0 min 0 min 0 W/m 10,5 km/h (2 Bft)
11.11.2014 17:46 11,3 C 9,4 C 92 % 1003,4 hPa 0,0 l/m 0 min 0 min 0 W/m 10,5 km/h (2 Bft)
11.11.2014 17:48 11,3 C 9,4 C 92 % 1003,4 hPa 0,0 l/m 0 min 0 min 0 W/m 8,4 km/h (2 Bft)
11.11.2014 17:50 11,3 C 9,4 C 92 % 1003,4 hPa 0,0 l/m 0 min 0 min 0 W/m 10,5 km/h (2 Bft)
11.11.2014 17:52 11,3 C 9,4 C 92 % 1003,4 hPa 0,0 l/m 0 min 0 min 0 W/m 14,6 km/h (3 Bft)
11.11.2014 17:54 11,3 C 9,4 C 92 % 1003,3 hPa 0,0 l/m 0 min 0 min 0 W/m 12,6 km/h (3 Bft)
11.11.2014 17:56 11,3 C 8,9 C 92 % 1003,2 hPa 0,0 l/m 0 min 0 min 0 W/m 14,6 km/h (3 Bft)
11.11.2014 17:58 11,3 C 8,9 C 92 % 1003,1 hPa 0,0 l/m 0 min 0 min 0 W/m 12,6 km/h (3 Bft)
11.11.2014 18:00 11,3 C 8,9 C 92 % 1003,3 hPa 0,0 l/m 0 min 0 min 0 W/m 10,5 km/h (2 Bft)
11.11.2014 18:02 11,3 C 8,9 C 92 % 1003,4 hPa 0,0 l/m 0 min 0 min 0 W/m 6,3 km/h (2 Bft)
11.11.2014 18:06 11,3 C 8,9 C 92 % 1003,4 hPa 0,0 l/m 0 min 0 min 0 W/m 8,4 km/h (2 Bft)
11.11.2014 18:08 11,3 C 8,9 C 92 % 1003,3 hPa 0,0 l/m 0 min 0 min 0 W/m 8,4 km/h (2 Bft)
11.11.2014 18:10 11,3 C 8,9 C 92 % 1003,4 hPa 0,0 l/m 0 min 0 min 0 W/m 10,5 km/h (2 Bft)
11.11.2014 18:12 11,3 C 8,9 C 92 % 1003,3 hPa 0,0 l/m 0 min 0 min 0 W/m 10,5 km/h (2 Bft)
11.11.2014 18:14 11,3 C 8,9 C 92 % 1003,3 hPa 0,0 l/m 0 min 0 min 0 W/m 10,5 km/h (2 Bft)
11.11.2014 18:16 11,2 C 8,9 C 92 % 1003,0 hPa 0,0 l/m 0 min 0 min 0 W/m 14,6 km/h (3 Bft)
11.11.2014 18:18 11,2 C 8,9 C 92 % 1003,0 hPa 0,0 l/m 0 min 0 min 0 W/m 16,7 km/h (3 Bft)
11.11.2014 18:20 11,2 C 9,4 C 92 % 1002,9 hPa 0,0 l/m 0 min 0 min 0 W/m 14,6 km/h (3 Bft)
11.11.2014 18:22 11,2 C 8,9 C 92 % 1003,0 hPa 0,0 l/m 0 min 0 min 0 W/m 10,5 km/h (2 Bft)
11.11.2014 18:24 11,2 C 8,9 C 92 % 1003,0 hPa 0,0 l/m 0 min 0 min 0 W/m 10,5 km/h (2 Bft)
11.11.2014 18:26 11,2 C 8,9 C 91 % 1003,0 hPa 0,0 l/m 0 min 0 min 0 W/m 14,6 km/h (3 Bft)
11.11.2014 18:28 11,2 C 8,9 C 91 % 1003,0 hPa 0,0 l/m 0 min 0 min 0 W/m 10,5 km/h (2 Bft)
11.11.2014 18:30 11,2 C 8,9 C 91 % 1003,0 hPa 0,0 l/m 0 min 0 min 0 W/m 10,5 km/h (2 Bft)
11.11.2014 18:32 11,1 C 8,9 C 91 % 1002,9 hPa 0,0 l/m 0 min 0 min 0 W/m 12,6 km/h (3 Bft)
11.11.2014 18:34 11,1 C 8,9 C 91 % 1002,8 hPa 0,0 l/m 0 min 0 min 0 W/m 12,6 km/h (3 Bft)
11.11.2014 18:36 11,1 C 8,9 C 91 % 1002,8 hPa 0,0 l/m 0 min 0 min 0 W/m 16,7 km/h (3 Bft)
11.11.2014 18:38 11,1 C 8,9 C 91 % 1002,9 hPa 0,0 l/m 0 min 0 min 0 W/m 10,5 km/h (2 Bft)
11.11.2014 18:40 11,1 C 8,9 C 91 % 1002,7 hPa 0,0 l/m 0 min 0 min 0 W/m 10,5 km/h (2 Bft)
11.11.2014 18:42 11,1 C 8,9 C 91 % 1002,5 hPa 0,0 l/m 0 min 0 min 0 W/m 8,4 km/h (2 Bft)
11.11.2014 18:44 11,1 C 8,9 C 91 % 1002,5 hPa 0,0 l/m 0 min 0 min 0 W/m 10,5 km/h (2 Bft)
11.11.2014 18:46 11,0 C 8,9 C 91 % 1002,6 hPa 0,0 l/m 0 min 0 min 0 W/m 10,5 km/h (2 Bft)
11.11.2014 18:48 11,0 C 8,3 C 91 % 1002,6 hPa 0,0 l/m 0 min 0 min 0 W/m 8,4 km/h (2 Bft)
11.11.2014 18:50 11,0 C 8,3 C 91 % 1002,7 hPa 0,0 l/m 0 min 0 min 0 W/m 8,4 km/h (2 Bft)
11.11.2014 18:52 11,0 C 8,3 C 91 % 1002,8 hPa 0,0 l/m 0 min 0 min 0 W/m 8,4 km/h (2 Bft)
11.11.2014 18:54 10,9 C 8,3 C 91 % 1002,8 hPa 0,0 l/m 0 min 0 min 0 W/m 8,4 km/h (2 Bft)
11.11.2014 18:56 10,9 C 8,3 C 91 % 1002,8 hPa 0,0 l/m 0 min 0 min 0 W/m 10,5 km/h (2 Bft)
11.11.2014 18:58 10,9 C 8,3 C 91 % 1002,8 hPa 0,0 l/m 0 min 0 min 0 W/m 10,5 km/h (2 Bft)
11.11.2014 19:00 10,9 C 8,3 C 91 % 1002,8 hPa 0,0 l/m 0 min 0 min 0 W/m 8,4 km/h (2 Bft)
11.11.2014 19:02 10,8 C 8,3 C 91 % 1002,9 hPa 0,0 l/m 0 min 0 min 0 W/m 14,6 km/h (3 Bft)
11.11.2014 19:04 10,8 C 8,3 C 91 % 1002,9 hPa 0,0 l/m 0 min 0 min 0 W/m 8,4 km/h (2 Bft)
11.11.2014 19:06 10,8 C 8,3 C 91 % 1003,1 hPa 0,0 l/m 0 min 0 min 0 W/m 8,4 km/h (2 Bft)
11.11.2014 19:08 10,8 C 8,3 C 91 % 1003,2 hPa 0,0 l/m 0 min 0 min 0 W/m 12,6 km/h (3 Bft)
11.11.2014 19:10 10,7 C 8,3 C 91 % 1003,5 hPa 0,0 l/m 0 min 0 min 0 W/m 8,4 km/h (2 Bft)
11.11.2014 19:12 10,7 C 8,3 C 91 % 1003,4 hPa 0,0 l/m 0 min 0 min 0 W/m 10,5 km/h (2 Bft)
11.11.2014 19:14 10,7 C 8,3 C 91 % 1003,5 hPa 0,0 l/m 0 min 0 min 0 W/m 6,3 km/h (2 Bft)
11.11.2014 19:16 10,7 C 7,8 C 91 % 1003,4 hPa 0,0 l/m 0 min 0 min 0 W/m 12,6 km/h (3 Bft)
11.11.2014 19:18 10,6 C 7,8 C 91 % 1003,2 hPa 0,0 l/m 0 min 0 min 0 W/m 12,6 km/h (3 Bft)
11.11.2014 19:20 10,6 C 7,8 C 91 % 1003,2 hPa 0,0 l/m 0 min 0 min 0 W/m 14,6 km/h (3 Bft)
11.11.2014 19:22 10,6 C 7,8 C 91 % 1003,3 hPa 0,0 l/m 0 min 0 min 0 W/m 12,6 km/h (3 Bft)
11.11.2014 19:24 10,5 C 7,8 C 91 % 1003,3 hPa 0,0 l/m 0 min 0 min 0 W/m 12,6 km/h (3 Bft)
11.11.2014 19:26 10,5 C 7,8 C 91 % 1003,1 hPa 0,0 l/m 0 min 0 min 0 W/m 10,5 km/h (2 Bft)
11.11.2014 19:28 10,4 C 7,8 C 91 % 1003,1 hPa 0,0 l/m 0 min 0 min 0 W/m 10,5 km/h (2 Bft)
11.11.2014 19:30 10,4 C 7,8 C 91 % 1003,1 hPa 0,0 l/m 0 min 0 min 0 W/m 10,5 km/h (2 Bft)
11.11.2014 19:32 10,4 C 7,8 C 91 % 1003,0 hPa 0,0 l/m 0 min 0 min 0 W/m 10,5 km/h (2 Bft)
11.11.2014 19:34 10,3 C 7,8 C 91 % 1002,9 hPa 0,0 l/m 0 min 0 min 0 W/m 10,5 km/h (2 Bft)
11.11.2014 19:36 10,3 C 7,8 C 91 % 1002,8 hPa 0,0 l/m 0 min 0 min 0 W/m 14,6 km/h (3 Bft)
11.11.2014 19:38 10,3 C 7,8 C 91 % 1002,7 hPa 0,0 l/m 0 min 0 min 0 W/m 14,6 km/h (3 Bft)
11.11.2014 19:40 10,3 C 7,8 C 91 % 1002,7 hPa 0,0 l/m 0 min 0 min 0 W/m 18,8 km/h (3 Bft)
11.11.2014 19:42 10,2 C 7,8 C 91 % 1002,7 hPa 0,0 l/m 0 min 0 min 0 W/m 16,7 km/h (3 Bft)
11.11.2014 19:44 10,2 C 7,8 C 91 % 1002,7 hPa 0,0 l/m 0 min 0 min 0 W/m 18,8 km/h (3 Bft)
11.11.2014 19:46 10,2 C 7,8 C 91 % 1002,7 hPa 0,0 l/m 0 min 0 min 0 W/m 18,8 km/h (3 Bft)
11.11.2014 19:48 10,2 C 7,8 C 91 % 1002,8 hPa 0,0 l/m 0 min 0 min 0 W/m 12,6 km/h (3 Bft)
11.11.2014 19:50 10,1 C 7,8 C 91 % 1002,7 hPa 0,0 l/m 0 min 0 min 0 W/m 16,7 km/h (3 Bft)
11.11.2014 19:52 10,1 C 7,8 C 91 % 1002,8 hPa 0,0 l/m 0 min 0 min 0 W/m 12,6 km/h (3 Bft)
11.11.2014 19:54 10,1 C 7,8 C 91 % 1002,7 hPa 0,0 l/m 0 min 0 min 0 W/m 10,5 km/h (2 Bft)
11.11.2014 19:56 10,1 C 7,8 C 91 % 1002,7 hPa 0,0 l/m 0 min 0 min 0 W/m 10,5 km/h (2 Bft)
11.11.2014 19:58 10,0 C 7,8 C 91 % 1002,9 hPa 0,0 l/m 0 min 0 min 0 W/m 16,7 km/h (3 Bft)
11.11.2014 20:00 10,0 C 7,8 C 91 % 1002,8 hPa 0,0 l/m 0 min 0 min 0 W/m 16,7 km/h (3 Bft)
11.11.2014 20:02 10,0 C 7,8 C 91 % 1002,7 hPa 0,0 l/m 0 min 0 min 0 W/m 18,8 km/h (3 Bft)
11.11.2014 20:04 10,0 C 7,8 C 91 % 1002,7 hPa 0,0 l/m 0 min 0 min 0 W/m 16,7 km/h (3 Bft)
11.11.2014 20:06 10,0 C 7,8 C 91 % 1002,8 hPa 0,0 l/m 0 min 0 min 0 W/m 16,7 km/h (3 Bft)
11.11.2014 20:08 10,0 C 7,8 C 91 % 1002,9 hPa 0,0 l/m 0 min 0 min 0 W/m 12,6 km/h (3 Bft)
11.11.2014 20:10 9,9 C 7,8 C 91 % 1002,9 hPa 0,0 l/m 0 min 0 min 0 W/m 10,5 km/h (2 Bft)
11.11.2014 20:12 9,9 C 8,3 C 91 % 1002,9 hPa 0,0 l/m 0 min 0 min 0 W/m 18,8 km/h (3 Bft)
11.11.2014 20:14 9,9 C 8,3 C 91 % 1002,9 hPa 0,0 l/m 0 min 0 min 0 W/m 14,6 km/h (3 Bft)
11.11.2014 20:16 9,9 C 8,3 C 91 % 1003,0 hPa 0,0 l/m 0 min 0 min 0 W/m 25,1 km/h (4 Bft)
11.11.2014 20:18 9,9 C 8,3 C 91 % 1003,0 hPa 0,0 l/m 0 min 0 min 0 W/m 16,7 km/h (3 Bft)
11.11.2014 20:20 9,9 C 8,3 C 91 % 1003,1 hPa 0,0 l/m 0 min 0 min 0 W/m 14,6 km/h (3 Bft)
11.11.2014 20:22 9,9 C 8,3 C 91 % 1003,1 hPa 0,0 l/m 0 min 0 min 0 W/m 16,7 km/h (3 Bft)
11.11.2014 20:24 9,9 C 8,3 C 91 % 1002,9 hPa 0,0 l/m 0 min 0 min 0 W/m 16,7 km/h (3 Bft)
11.11.2014 20:26 9,9 C 8,3 C 91 % 1002,9 hPa 0,0 l/m 0 min 0 min 0 W/m 14,6 km/h (3 Bft)
11.11.2014 20:28 9,9 C 8,3 C 91 % 1002,9 hPa 0,0 l/m 0 min 0 min 0 W/m 16,7 km/h (3 Bft)
11.11.2014 20:30 9,9 C 7,8 C 91 % 1003,0 hPa 0,0 l/m 0 min 0 min 0 W/m 16,7 km/h (3 Bft)
11.11.2014 20:32 9,9 C 7,8 C 91 % 1003,0 hPa 0,0 l/m 0 min 0 min 0 W/m 18,8 km/h (3 Bft)
11.11.2014 20:34 9,9 C 7,8 C 91 % 1003,1 hPa 0,0 l/m 0 min 0 min 0 W/m 14,6 km/h (3 Bft)
11.11.2014 20:36 9,9 C 7,8 C 91 % 1003,0 hPa 0,0 l/m 0 min 0 min 0 W/m 12,6 km/h (3 Bft)
11.11.2014 20:38 9,9 C 7,8 C 91 % 1002,9 hPa 0,0 l/m 0 min 0 min 0 W/m 14,6 km/h (3 Bft)
11.11.2014 20:40 9,9 C 7,8 C 91 % 1003,0 hPa 0,0 l/m 0 min 0 min 0 W/m 14,6 km/h (3 Bft)
11.11.2014 20:42 9,9 C 7,8 C 91 % 1003,0 hPa 0,0 l/m 0 min 0 min 0 W/m 10,5 km/h (2 Bft)
11.11.2014 20:44 9,9 C 7,8 C 91 % 1003,1 hPa 0,0 l/m 0 min 0 min 0 W/m 14,6 km/h (3 Bft)
11.11.2014 20:46 9,8 C 7,8 C 91 % 1003,0 hPa 0,0 l/m 0 min 0 min 0 W/m 10,5 km/h (2 Bft)
11.11.2014 20:48 9,9 C 7,8 C 91 % 1003,0 hPa 0,0 l/m 0 min 0 min 0 W/m 8,4 km/h (2 Bft)
11.11.2014 20:50 9,8 C 7,8 C 91 % 1003,0 hPa 0,0 l/m 0 min 0 min 0 W/m 12,6 km/h (3 Bft)
11.11.2014 20:52 9,8 C 7,8 C 91 % 1002,9 hPa 0,0 l/m 0 min 0 min 0 W/m 6,3 km/h (2 Bft)
11.11.2014 20:54 9,8 C 7,8 C 91 % 1003,0 hPa 0,0 l/m 0 min 0 min 0 W/m 10,5 km/h (2 Bft)
11.11.2014 20:56 9,8 C 7,8 C 91 % 1003,0 hPa 0,0 l/m 0 min 0 min 0 W/m 8,4 km/h (2 Bft)
11.11.2014 20:58 9,8 C 7,8 C 91 % 1003,0 hPa 0,0 l/m 0 min 0 min 0 W/m 8,4 km/h (2 Bft)
11.11.2014 21:00 9,8 C 7,8 C 91 % 1003,0 hPa 0,0 l/m 0 min 0 min 0 W/m 14,6 km/h (3 Bft)
11.11.2014 21:02 9,8 C 7,8 C 91 % 1003,0 hPa 0,0 l/m 0 min 0 min 0 W/m 25,1 km/h (4 Bft)
11.11.2014 21:04 9,8 C 7,8 C 91 % 1003,0 hPa 0,0 l/m 0 min 0 min 0 W/m 16,7 km/h (3 Bft)
11.11.2014 21:06 9,8 C 8,3 C 91 % 1002,9 hPa 0,0 l/m 0 min 0 min 0 W/m 20,9 km/h (4 Bft)
11.11.2014 21:08 9,8 C 8,3 C 91 % 1002,9 hPa 0,0 l/m 0 min 0 min 0 W/m 31,4 km/h (5 Bft)
11.11.2014 21:10 9,8 C 7,8 C 91 % 1003,0 hPa 0,0 l/m 0 min 0 min 0 W/m 18,8 km/h (3 Bft)
11.11.2014 21:12 9,8 C 7,8 C 91 % 1003,0 hPa 0,0 l/m 0 min 0 min 0 W/m 20,9 km/h (4 Bft)
11.11.2014 21:14 9,8 C 7,8 C 91 % 1003,1 hPa 0,0 l/m 0 min 0 min 0 W/m 23,0 km/h (4 Bft)
11.11.2014 21:16 9,8 C 8,3 C 91 % 1003,2 hPa 0,0 l/m 0 min 0 min 0 W/m 27,2 km/h (4 Bft)
11.11.2014 21:18 9,8 C 7,8 C 91 % 1003,1 hPa 0,0 l/m 0 min 0 min 0 W/m 25,1 km/h (4 Bft)
11.11.2014 21:20 9,8 C 7,8 C 91 % 1003,0 hPa 0,0 l/m 0 min 0 min 0 W/m 25,1 km/h (4 Bft)
11.11.2014 21:22 9,8 C 7,8 C 91 % 1003,0 hPa 0,0 l/m 0 min 0 min 0 W/m 25,1 km/h (4 Bft)
11.11.2014 21:24 9,8 C 7,8 C 90 % 1003,0 hPa 0,0 l/m 0 min 0 min 0 W/m 29,3 km/h (5 Bft)
11.11.2014 21:26 9,8 C 7,8 C 90 % 1003,0 hPa 0,0 l/m 0 min 0 min 0 W/m 20,9 km/h (4 Bft)
11.11.2014 21:28 9,8 C 7,8 C 90 % 1003,1 hPa 0,0 l/m 0 min 0 min 0 W/m 23,0 km/h (4 Bft)
11.11.2014 21:30 9,8 C 7,8 C 90 % 1003,0 hPa 0,0 l/m 0 min 0 min 0 W/m 20,9 km/h (4 Bft)
11.11.2014 21:32 9,8 C 7,8 C 90 % 1002,9 hPa 0,0 l/m 0 min 0 min 0 W/m 35,6 km/h (5 Bft)
11.11.2014 21:34 9,8 C 7,8 C 90 % 1002,8 hPa 0,0 l/m 0 min 0 min 0 W/m 27,2 km/h (4 Bft)
11.11.2014 21:36 9,8 C 7,8 C 90 % 1002,8 hPa 0,0 l/m 0 min 0 min 0 W/m 29,3 km/h (5 Bft)
11.11.2014 21:38 9,8 C 7,8 C 90 % 1002,7 hPa 0,0 l/m 0 min 0 min 0 W/m 29,3 km/h (5 Bft)
11.11.2014 21:40 9,8 C 7,8 C 90 % 1002,7 hPa 0,0 l/m 0 min 0 min 0 W/m 25,1 km/h (4 Bft)
11.11.2014 21:42 9,8 C 7,8 C 90 % 1002,7 hPa 0,0 l/m 0 min 0 min 0 W/m 33,5 km/h (5 Bft)
11.11.2014 21:44 9,8 C 7,8 C 90 % 1002,8 hPa 0,0 l/m 0 min 0 min 0 W/m 29,3 km/h (5 Bft)
11.11.2014 21:46 9,8 C 7,8 C 90 % 1002,7 hPa 0,0 l/m 0 min 0 min 0 W/m 20,9 km/h (4 Bft)
11.11.2014 21:48 9,8 C 7,8 C 90 % 1002,7 hPa 0,0 l/m 0 min 0 min 0 W/m 29,3 km/h (5 Bft)
11.11.2014 21:50 9,8 C 7,8 C 90 % 1002,7 hPa 0,0 l/m 0 min 0 min 0 W/m 25,1 km/h (4 Bft)
11.11.2014 21:52 9,8 C 7,8 C 90 % 1002,7 hPa 0,0 l/m 0 min 0 min 0 W/m 25,1 km/h (4 Bft)
11.11.2014 21:54 9,8 C 7,8 C 90 % 1002,7 hPa 0,0 l/m 0 min 0 min 0 W/m 29,3 km/h (5 Bft)
11.11.2014 21:56 9,8 C 7,8 C 90 % 1002,4 hPa 0,0 l/m 0 min 0 min 0 W/m 27,2 km/h (4 Bft)
11.11.2014 21:58 9,8 C 7,8 C 90 % 1002,2 hPa 0,0 l/m 0 min 0 min 0 W/m 23,0 km/h (4 Bft)
11.11.2014 22:00 9,8 C 7,8 C 90 % 1002,1 hPa 0,0 l/m 0 min 0 min 0 W/m 25,1 km/h (4 Bft)
11.11.2014 22:02 9,7 C 7,8 C 90 % 1002,2 hPa 0,0 l/m 0 min 0 min 0 W/m 23,0 km/h (4 Bft)
11.11.2014 22:04 9,7 C 7,8 C 90 % 1002,3 hPa 0,0 l/m 0 min 0 min 0 W/m 25,1 km/h (4 Bft)
11.11.2014 22:06 9,7 C 7,8 C 90 % 1002,3 hPa 0,0 l/m 0 min 0 min 0 W/m 33,5 km/h (5 Bft)
11.11.2014 22:08 9,7 C 7,8 C 90 % 1002,2 hPa 0,0 l/m 0 min 0 min 0 W/m 27,2 km/h (4 Bft)
11.11.2014 22:10 9,7 C 7,8 C 90 % 1002,1 hPa 0,0 l/m 0 min 0 min 0 W/m 27,2 km/h (4 Bft)
11.11.2014 22:12 9,7 C 7,8 C 90 % 1002,2 hPa 0,0 l/m 0 min 0 min 0 W/m 25,1 km/h (4 Bft)
11.11.2014 22:14 9,6 C 7,8 C 90 % 1002,5 hPa 0,0 l/m 0 min 0 min 0 W/m 23,0 km/h (4 Bft)
11.11.2014 22:16 9,6 C 7,8 C 90 % 1002,4 hPa 0,0 l/m 0 min 0 min 0 W/m 20,9 km/h (4 Bft)
11.11.2014 22:18 9,6 C 7,8 C 90 % 1002,6 hPa 0,0 l/m 0 min 0 min 0 W/m 18,8 km/h (3 Bft)
11.11.2014 22:20 9,6 C 7,8 C 90 % 1002,5 hPa 0,0 l/m 0 min 0 min 0 W/m 27,2 km/h (4 Bft)
11.11.2014 22:22 9,5 C 7,8 C 90 % 1002,4 hPa 0,0 l/m 0 min 0 min 0 W/m 25,1 km/h (4 Bft)
11.11.2014 22:24 9,5 C 7,8 C 90 % 1002,4 hPa 0,0 l/m 0 min 0 min 0 W/m 18,8 km/h (3 Bft)
11.11.2014 22:26 9,5 C 7,8 C 90 % 1002,4 hPa 0,0 l/m 0 min 0 min 0 W/m 29,3 km/h (5 Bft)
11.11.2014 22:28 9,4 C 7,8 C 90 % 1002,4 hPa 0,0 l/m 0 min 0 min 0 W/m 33,5 km/h (5 Bft)
11.11.2014 22:30 9,4 C 7,8 C 90 % 1002,4 hPa 0,0 l/m 0 min 0 min 0 W/m 29,3 km/h (5 Bft)
11.11.2014 22:32 9,4 C 7,8 C 90 % 1002,4 hPa 0,0 l/m 0 min 0 min 0 W/m 27,2 km/h (4 Bft)
11.11.2014 22:34 9,4 C 7,8 C 90 % 1002,4 hPa 0,0 l/m 0 min 0 min 0 W/m 31,4 km/h (5 Bft)
11.11.2014 22:36 9,4 C 7,8 C 90 % 1002,4 hPa 0,0 l/m 0 min 0 min 0 W/m 27,2 km/h (4 Bft)
11.11.2014 22:38 9,4 C 7,8 C 90 % 1002,4 hPa 0,0 l/m 0 min 0 min 0 W/m 25,1 km/h (4 Bft)
11.11.2014 22:40 9,4 C 7,8 C 90 % 1002,4 hPa 0,0 l/m 0 min 0 min 0 W/m 23,0 km/h (4 Bft)
11.11.2014 22:42 9,4 C 7,8 C 90 % 1002,4 hPa 0,0 l/m 0 min 0 min 0 W/m 27,2 km/h (4 Bft)
11.11.2014 22:44 9,4 C 7,8 C 90 % 1002,5 hPa 0,0 l/m 0 min 0 min 0 W/m 25,1 km/h (4 Bft)
11.11.2014 22:46 9,3 C 7,8 C 90 % 1002,4 hPa 0,0 l/m 0 min 0 min 0 W/m 33,5 km/h (5 Bft)
11.11.2014 22:48 9,3 C 7,8 C 90 % 1002,3 hPa 0,0 l/m 0 min 0 min 0 W/m 29,3 km/h (5 Bft)
11.11.2014 22:50 9,3 C 7,8 C 91 % 1002,3 hPa 0,0 l/m 0 min 0 min 0 W/m 31,4 km/h (5 Bft)
11.11.2014 22:52 9,3 C 7,8 C 91 % 1002,3 hPa 0,0 l/m 0 min 0 min 0 W/m 29,3 km/h (5 Bft)
11.11.2014 22:54 9,3 C 7,8 C 91 % 1002,3 hPa 0,0 l/m 0 min 0 min 0 W/m 20,9 km/h (4 Bft)
11.11.2014 22:56 9,3 C 7,8 C 91 % 1002,3 hPa 0,0 l/m 0 min 0 min 0 W/m 29,3 km/h (5 Bft)
11.11.2014 22:58 9,3 C 7,8 C 91 % 1002,3 hPa 0,0 l/m 0 min 0 min 0 W/m 31,4 km/h (5 Bft)
11.11.2014 23:00 9,3 C 7,8 C 91 % 1002,3 hPa 0,0 l/m 0 min 0 min 0 W/m 27,2 km/h (4 Bft)
11.11.2014 23:02 9,3 C 7,8 C 91 % 1002,2 hPa 0,0 l/m 0 min 0 min 0 W/m 29,3 km/h (5 Bft)
11.11.2014 23:04 9,2 C 7,8 C 91 % 1002,2 hPa 0,0 l/m 0 min 0 min 0 W/m 20,9 km/h (4 Bft)
11.11.2014 23:06 9,2 C 7,8 C 91 % 1002,2 hPa 0,0 l/m 0 min 0 min 0 W/m 23,0 km/h (4 Bft)
11.11.2014 23:08 9,2 C 7,8 C 91 % 1002,1 hPa 0,0 l/m 0 min 0 min 0 W/m 23,0 km/h (4 Bft)
11.11.2014 23:10 9,2 C 7,8 C 91 % 1002,1 hPa 0,0 l/m 0 min 0 min 0 W/m 23,0 km/h (4 Bft)
11.11.2014 23:12 9,2 C 7,8 C 91 % 1002,1 hPa 0,0 l/m 0 min 0 min 0 W/m 20,9 km/h (4 Bft)
11.11.2014 23:14 9,2 C 7,8 C 91 % 1002,1 hPa 0,0 l/m 0 min 0 min 0 W/m 29,3 km/h (5 Bft)
11.11.2014 23:16 9,2 C 7,8 C 91 % 1002,1 hPa 0,0 l/m 0 min 0 min 0 W/m 25,1 km/h (4 Bft)
11.11.2014 23:18 9,2 C 7,8 C 91 % 1002,1 hPa 0,0 l/m 0 min 0 min 0 W/m 20,9 km/h (4 Bft)
11.11.2014 23:20 9,2 C 7,8 C 91 % 1002,1 hPa 0,0 l/m 0 min 0 min 0 W/m 20,9 km/h (4 Bft)
11.11.2014 23:22 9,2 C 7,8 C 91 % 1002,0 hPa 0,0 l/m 0 min 0 min 0 W/m 23,0 km/h (4 Bft)
11.11.2014 23:24 9,2 C 7,8 C 91 % 1002,1 hPa 0,0 l/m 0 min 0 min 0 W/m 16,7 km/h (3 Bft)
11.11.2014 23:26 9,2 C 7,8 C 91 % 1002,1 hPa 0,0 l/m 0 min 0 min 0 W/m 23,0 km/h (4 Bft)
11.11.2014 23:28 9,1 C 7,8 C 91 % 1002,2 hPa 0,0 l/m 0 min 0 min 0 W/m 23,0 km/h (4 Bft)
11.11.2014 23:30 9,1 C 7,8 C 91 % 1002,1 hPa 0,0 l/m 0 min 0 min 0 W/m 18,8 km/h (3 Bft)
11.11.2014 23:32 9,1 C 7,8 C 91 % 1002,1 hPa 0,0 l/m 0 min 0 min 0 W/m 20,9 km/h (4 Bft)
11.11.2014 23:34 9,1 C 7,8 C 91 % 1002,1 hPa 0,0 l/m 0 min 0 min 0 W/m 27,2 km/h (4 Bft)
11.11.2014 23:36 9,1 C 7,8 C 91 % 1002,1 hPa 0,0 l/m 0 min 0 min 0 W/m 20,9 km/h (4 Bft)
11.11.2014 23:38 9,1 C 7,8 C 91 % 1002,1 hPa 0,0 l/m 0 min 0 min 0 W/m 27,2 km/h (4 Bft)
11.11.2014 23:40 9,1 C 7,8 C 91 % 1002,1 hPa 0,0 l/m 0 min 0 min 0 W/m 23,0 km/h (4 Bft)
11.11.2014 23:42 9,1 C 7,8 C 91 % 1002,1 hPa 0,0 l/m 0 min 0 min 0 W/m 18,8 km/h (3 Bft)
11.11.2014 23:44 9,1 C 7,8 C 91 % 1002,1 hPa 0,0 l/m 0 min 0 min 0 W/m 25,1 km/h (4 Bft)
11.11.2014 23:46 9,1 C 7,8 C 91 % 1002,2 hPa 0,0 l/m 0 min 0 min 0 W/m 25,1 km/h (4 Bft)
11.11.2014 23:48 9,0 C 7,2 C 91 % 1002,2 hPa 0,0 l/m 0 min 0 min 0 W/m 18,8 km/h (3 Bft)
11.11.2014 23:50 9,0 C 7,2 C 91 % 1002,2 hPa 0,0 l/m 0 min 0 min 0 W/m 23,0 km/h (4 Bft)
11.11.2014 23:52 8,9 C 7,2 C 91 % 1002,2 hPa 0,0 l/m 0 min 0 min 0 W/m 18,8 km/h (3 Bft)
11.11.2014 23:54 8,9 C 7,2 C 91 % 1002,3 hPa 0,0 l/m 0 min 0 min 0 W/m 18,8 km/h (3 Bft)
11.11.2014 23:56 8,9 C 7,2 C 91 % 1002,3 hPa 0,0 l/m 0 min 0 min 0 W/m 20,9 km/h (4 Bft)
11.11.2014 23:58 8,9 C 7,2 C 91 % 1002,3 hPa 0,0 l/m 0 min 0 min 0 W/m 14,6 km/h (3 Bft)
_ Min-Zeit 00:08 00:00 21:24 23:22 - - - - 00:06
Minimum _ 6,2 C 4,4 C 90 % 1002,0 hPa - - - - 6,3 km/h (2 Bft)
_ Max-Zeit 16:08 15:18 05:08 00:50 03:18 08:12 03:16 10:04 13:14
Maximum _ 11,3 C 10,0 C 98 % 1010,0 hPa 0,2 l/m 2 min 2 min 99 W/m 39,7 km/h
O-SO (6 Bft)
Durchschnitt _ 9,1 C 7,6 C 94 % 1005,9 hPa #2,2 l/m #12 min. #2:24 h 46 W/m 19,6 km/h (3 Bft)
© 2014 W. Hausmann